Wetterdaten: Sonntag, 11.10.2020
Datum Zeit Temp. Aussen Temp. o. S. Temp +5cm Feuchte Auss Luftdruck Regen Sonnenschein Regendauer Solar Windben Empfang
11.10.2020 00:00 8,7 C 7,8 C 7,8 C 96 % 1019,3 hPa 0,0 l/m 0 min 0 min 0 W/m 6,4 km/h (2 Bft) 97,87 %
11.10.2020 00:02 8,7 C 7,8 C 7,8 C 96 % 1019,2 hPa 0,0 l/m 0 min 0 min 0 W/m 12,9 km/h (3 Bft) 97,30 %
11.10.2020 00:04 8,7 C 7,8 C 7,8 C 96 % 1019,2 hPa 0,0 l/m 0 min 0 min 0 W/m 12,9 km/h (3 Bft) 97,87 %
11.10.2020 00:07 8,7 C 7,8 C 7,8 C 96 % 1019,3 hPa 0,0 l/m 0 min 0 min 0 W/m 12,9 km/h (3 Bft) 97,14 %
11.10.2020 00:08 8,7 C 7,8 C 7,8 C 96 % 1019,3 hPa 0,0 l/m 0 min 0 min 0 W/m 9,7 km/h (2 Bft) 95,65 %
11.10.2020 00:10 8,7 C 7,8 C 7,8 C 96 % 1019,3 hPa 0,0 l/m 0 min 0 min 0 W/m 12,9 km/h (3 Bft) 97,92 %
11.10.2020 00:12 8,7 C 7,8 C 7,8 C 96 % 1019,3 hPa 0,0 l/m 0 min 0 min 0 W/m 9,7 km/h (2 Bft) 97,87 %
11.10.2020 00:14 8,7 C 7,8 C 7,8 C 96 % 1019,3 hPa 0,0 l/m 0 min 0 min 0 W/m 6,4 km/h (2 Bft) 97,87 %
11.10.2020 00:16 8,7 C 7,8 C 7,8 C 96 % 1019,4 hPa 0,0 l/m 0 min 0 min 0 W/m 6,4 km/h (2 Bft) 95,74 %
11.10.2020 00:18 8,7 C 7,8 C 7,8 C 96 % 1019,4 hPa 0,0 l/m 0 min 0 min 0 W/m 6,4 km/h (2 Bft) 97,83 %
11.10.2020 00:20 8,7 C 7,8 C 7,8 C 96 % 1019,4 hPa 0,0 l/m 0 min 0 min 0 W/m 12,9 km/h (3 Bft) 97,87 %
11.10.2020 00:22 8,7 C 7,8 C 7,8 C 96 % 1019,4 hPa 0,0 l/m 0 min 0 min 0 W/m 6,4 km/h (2 Bft) 95,74 %
11.10.2020 00:24 8,7 C 7,8 C 7,8 C 96 % 1019,4 hPa 0,0 l/m 0 min 0 min 0 W/m 3,2 km/h (1 Bft) 95,74 %
11.10.2020 00:26 8,7 C 7,8 C 7,8 C 96 % 1019,4 hPa 0,0 l/m 0 min 0 min 0 W/m 0,0 km/h (0 Bft) 97,87 %
11.10.2020 00:28 8,7 C 7,8 C 7,8 C 96 % 1019,4 hPa 0,0 l/m 0 min 0 min 0 W/m 9,7 km/h (2 Bft) 95,74 %
11.10.2020 00:30 8,7 C 7,8 C 7,8 C 96 % 1019,4 hPa 0,0 l/m 0 min 0 min 0 W/m 6,4 km/h (2 Bft) 95,65 %
11.10.2020 00:32 8,7 C 7,8 C 7,8 C 96 % 1019,4 hPa 0,0 l/m 0 min 0 min 0 W/m 6,4 km/h (2 Bft) 97,87 %
11.10.2020 00:34 8,7 C 7,8 C 7,8 C 96 % 1019,4 hPa 0,0 l/m 0 min 0 min 0 W/m 6,4 km/h (2 Bft) 97,87 %
11.10.2020 00:36 8,7 C 7,8 C 7,8 C 96 % 1019,4 hPa 0,0 l/m 0 min 0 min 0 W/m 12,9 km/h (3 Bft) 97,87 %
11.10.2020 00:38 8,7 C 7,8 C 7,8 C 96 % 1019,4 hPa 0,0 l/m 0 min 0 min 0 W/m 12,9 km/h (3 Bft) 97,87 %
11.10.2020 00:40 8,7 C 7,8 C 7,8 C 96 % 1019,4 hPa 0,0 l/m 0 min 0 min 0 W/m 6,4 km/h (2 Bft) 100,00 %
11.10.2020 00:42 8,8 C 7,8 C 7,8 C 96 % 1019,3 hPa 0,0 l/m 0 min 0 min 0 W/m 12,9 km/h (3 Bft) 97,83 %
11.10.2020 00:44 8,7 C 7,8 C 7,8 C 96 % 1019,4 hPa 0,0 l/m 0 min 0 min 0 W/m 6,4 km/h (2 Bft) 97,87 %
11.10.2020 00:46 8,7 C 7,8 C 7,8 C 96 % 1019,4 hPa 0,0 l/m 0 min 0 min 0 W/m 12,9 km/h (3 Bft) 97,87 %
11.10.2020 00:48 8,7 C 7,8 C 7,8 C 96 % 1019,3 hPa 0,0 l/m 0 min 0 min 0 W/m 12,9 km/h (3 Bft) 97,87 %
11.10.2020 00:50 8,7 C 7,8 C 7,8 C 96 % 1019,3 hPa 0,0 l/m 0 min 0 min 0 W/m 9,7 km/h (2 Bft) 97,87 %
11.10.2020 00:52 8,7 C 7,8 C 7,8 C 96 % 1019,3 hPa 0,0 l/m 0 min 0 min 0 W/m 6,4 km/h (2 Bft) 97,87 %
11.10.2020 00:54 8,7 C 7,8 C 7,8 C 96 % 1019,3 hPa 0,0 l/m 0 min 0 min 0 W/m 16,1 km/h (3 Bft) 97,83 %
11.10.2020 00:56 8,7 C 7,8 C 7,8 C 96 % 1019,3 hPa 0,0 l/m 0 min 0 min 0 W/m 9,7 km/h (2 Bft) 97,87 %
11.10.2020 00:58 8,7 C 7,8 C 7,8 C 96 % 1019,3 hPa 0,0 l/m 0 min 0 min 0 W/m 9,7 km/h (2 Bft) 54,35 %
11.10.2020 01:00 8,7 C 7,2 C 7,8 C 96 % 1019,4 hPa 0,0 l/m 0 min 0 min 0 W/m 6,4 km/h (2 Bft) 97,62 %
11.10.2020 01:02 8,7 C 7,8 C 7,8 C 96 % 1019,3 hPa 0,0 l/m 0 min 0 min 0 W/m 6,4 km/h (2 Bft) 97,87 %
11.10.2020 01:04 8,7 C 7,8 C 7,8 C 96 % 1019,4 hPa 0,0 l/m 0 min 0 min 0 W/m 6,4 km/h (2 Bft) 93,48 %
11.10.2020 01:06 8,7 C 7,8 C 7,8 C 96 % 1019,3 hPa 0,0 l/m 0 min 0 min 0 W/m 6,4 km/h (2 Bft) 97,92 %
11.10.2020 01:08 8,7 C 7,8 C 7,8 C 96 % 1019,4 hPa 0,0 l/m 0 min 0 min 0 W/m 3,2 km/h (1 Bft) 97,87 %
11.10.2020 01:10 8,7 C 7,2 C 7,8 C 96 % 1019,3 hPa 0,0 l/m 0 min 0 min 0 W/m 6,4 km/h (2 Bft) 97,87 %
11.10.2020 01:12 8,6 C 7,2 C 7,2 C 96 % 1019,3 hPa 0,0 l/m 0 min 0 min 0 W/m 3,2 km/h (1 Bft) 95,74 %
11.10.2020 01:14 8,6 C 7,2 C 7,2 C 96 % 1019,3 hPa 0,0 l/m 0 min 0 min 0 W/m 3,2 km/h (1 Bft) 97,83 %
11.10.2020 01:16 8,6 C 7,2 C 7,2 C 96 % 1019,3 hPa 0,0 l/m 0 min 0 min 0 W/m 3,2 km/h (1 Bft) 95,74 %
11.10.2020 01:18 8,6 C 7,2 C 7,2 C 96 % 1019,3 hPa 0,0 l/m 0 min 0 min 0 W/m 9,7 km/h (2 Bft) 97,87 %
11.10.2020 01:20 8,6 C 7,2 C 7,2 C 96 % 1019,3 hPa 0,0 l/m 0 min 0 min 0 W/m 3,2 km/h (1 Bft) 97,87 %
11.10.2020 01:22 8,5 C 7,2 C 7,2 C 96 % 1019,3 hPa 0,0 l/m 0 min 0 min 0 W/m 3,2 km/h (1 Bft) 97,56 %
11.10.2020 01:24 8,5 C 6,7 C 7,2 C 96 % 1019,4 hPa 0,0 l/m 0 min 0 min 0 W/m 3,2 km/h (1 Bft) 97,87 %
11.10.2020 01:26 8,4 C 6,7 C 7,2 C 96 % 1019,3 hPa 0,0 l/m 0 min 0 min 0 W/m 6,4 km/h (2 Bft) 97,92 %
11.10.2020 01:28 8,4 C 6,7 C 6,7 C 96 % 1019,3 hPa 0,0 l/m 0 min 0 min 0 W/m 3,2 km/h (1 Bft) 100,00 %
11.10.2020 01:30 8,4 C 6,7 C 6,7 C 96 % 1019,3 hPa 0,0 l/m 0 min 0 min 0 W/m 3,2 km/h (1 Bft) 100,00 %
11.10.2020 01:32 8,3 C 6,7 C 6,7 C 96 % 1019,3 hPa 0,0 l/m 0 min 0 min 0 W/m 3,2 km/h (1 Bft) 100,00 %
11.10.2020 01:34 8,3 C 6,7 C 6,7 C 96 % 1019,3 hPa 0,0 l/m 0 min 0 min 0 W/m 3,2 km/h (1 Bft) 100,00 %
11.10.2020 01:36 8,3 C 6,7 C 6,7 C 96 % 1019,4 hPa 0,0 l/m 0 min 0 min 0 W/m 3,2 km/h (1 Bft) 100,00 %
11.10.2020 01:38 8,3 C 6,7 C 6,7 C 96 % 1019,4 hPa 0,0 l/m 0 min 0 min 0 W/m 9,7 km/h (2 Bft) 100,00 %
11.10.2020 01:40 8,2 C 6,7 C 6,7 C 96 % 1019,4 hPa 0,0 l/m 0 min 0 min 0 W/m 6,4 km/h (2 Bft) 100,00 %
11.10.2020 01:42 8,2 C 6,7 C 6,7 C 96 % 1019,4 hPa 0,0 l/m 0 min 0 min 0 W/m 6,4 km/h (2 Bft) 100,00 %
11.10.2020 01:44 8,2 C 6,7 C 6,7 C 96 % 1019,4 hPa 0,0 l/m 0 min 0 min 0 W/m 0,0 km/h (0 Bft) 100,00 %
11.10.2020 01:46 8,1 C 6,7 C 6,7 C 96 % 1019,4 hPa 0,0 l/m 0 min 0 min 0 W/m 3,2 km/h (1 Bft) 100,00 %
11.10.2020 01:48 8,1 C 6,7 C 6,7 C 96 % 1019,4 hPa 0,0 l/m 0 min 0 min 0 W/m 0,0 km/h (0 Bft) 100,00 %
11.10.2020 01:50 8,1 C 6,7 C 6,7 C 96 % 1019,5 hPa 0,0 l/m 0 min 0 min 0 W/m 3,2 km/h (1 Bft) 100,00 %
11.10.2020 01:52 8,1 C 6,7 C 6,7 C 96 % 1019,4 hPa 0,0 l/m 0 min 0 min 0 W/m 0,0 km/h (0 Bft) 100,00 %
11.10.2020 01:54 8,0 C 6,7 C 6,7 C 96 % 1019,5 hPa 0,0 l/m 0 min 0 min 0 W/m 6,4 km/h (2 Bft) 100,00 %
11.10.2020 01:56 8,0 C 6,7 C 6,7 C 96 % 1019,5 hPa 0,0 l/m 0 min 0 min 0 W/m 6,4 km/h (2 Bft) 100,00 %
11.10.2020 01:58 7,9 C 6,7 C 6,7 C 96 % 1019,5 hPa 0,0 l/m 0 min 0 min 0 W/m 3,2 km/h (1 Bft) 100,00 %
11.10.2020 02:00 7,9 C 6,1 C 6,7 C 96 % 1019,4 hPa 0,0 l/m 0 min 0 min 0 W/m 0,0 km/h (0 Bft) 100,00 %
11.10.2020 02:02 7,9 C 6,1 C 6,1 C 96 % 1019,4 hPa 0,0 l/m 0 min 0 min 0 W/m 0,0 km/h (0 Bft) 100,00 %
11.10.2020 02:04 7,8 C 6,1 C 6,1 C 96 % 1019,4 hPa 0,0 l/m 0 min 0 min 0 W/m 6,4 km/h (2 Bft) 97,87 %
11.10.2020 02:06 7,8 C 6,1 C 6,1 C 96 % 1019,5 hPa 0,0 l/m 0 min 0 min 0 W/m 0,0 km/h (0 Bft) 100,00 %
11.10.2020 02:08 7,8 C 6,1 C 6,1 C 96 % 1019,5 hPa 0,0 l/m 0 min 0 min 0 W/m 3,2 km/h (1 Bft) 100,00 %
11.10.2020 02:10 7,8 C 6,1 C 6,1 C 96 % 1019,5 hPa 0,0 l/m 0 min 0 min 0 W/m 0,0 km/h (0 Bft) 100,00 %
11.10.2020 02:12 7,8 C 6,1 C 6,1 C 96 % 1019,5 hPa 0,0 l/m 0 min 0 min 0 W/m 0,0 km/h (0 Bft) 100,00 %
11.10.2020 02:14 7,7 C 6,1 C 6,1 C 96 % 1019,5 hPa 0,0 l/m 0 min 0 min 0 W/m 0,0 km/h (0 Bft) 97,87 %
11.10.2020 02:16 7,7 C 6,1 C 6,1 C 96 % 1019,6 hPa 0,0 l/m 0 min 0 min 0 W/m 0,0 km/h (0 Bft) 97,87 %
11.10.2020 02:18 7,7 C 6,1 C 6,1 C 96 % 1019,5 hPa 0,0 l/m 0 min 0 min 0 W/m 0,0 km/h (0 Bft) 97,87 %
11.10.2020 02:20 7,7 C 6,1 C 6,1 C 96 % 1019,6 hPa 0,0 l/m 0 min 0 min 0 W/m 3,2 km/h (1 Bft) 97,87 %
11.10.2020 02:22 7,7 C 6,7 C 6,1 C 96 % 1019,6 hPa 0,0 l/m 0 min 0 min 0 W/m 0,0 km/h (0 Bft) 95,12 %
11.10.2020 02:24 7,7 C 6,7 C 6,7 C 96 % 1019,5 hPa 0,0 l/m 0 min 0 min 0 W/m 0,0 km/h (0 Bft) 97,87 %
11.10.2020 02:26 7,6 C 6,7 C 6,7 C 96 % 1019,6 hPa 0,0 l/m 0 min 0 min 0 W/m 0,0 km/h (0 Bft) 97,92 %
11.10.2020 02:28 7,6 C 6,7 C 6,7 C 96 % 1019,5 hPa 0,0 l/m 0 min 0 min 0 W/m 0,0 km/h (0 Bft) 95,74 %
11.10.2020 02:30 7,6 C 6,7 C 6,7 C 96 % 1019,6 hPa 0,0 l/m 0 min 0 min 0 W/m 0,0 km/h (0 Bft) 97,92 %
11.10.2020 02:32 7,6 C 6,7 C 6,7 C 96 % 1019,6 hPa 0,0 l/m 0 min 0 min 0 W/m 0,0 km/h (0 Bft) 97,92 %
11.10.2020 02:34 7,6 C 6,7 C 6,7 C 96 % 1019,5 hPa 0,0 l/m 0 min 0 min 0 W/m 0,0 km/h (0 Bft) 95,74 %
11.10.2020 02:36 7,6 C 6,7 C 6,7 C 96 % 1019,5 hPa 0,0 l/m 0 min 0 min 0 W/m 0,0 km/h (0 Bft) 97,87 %
11.10.2020 02:38 7,6 C 6,7 C 6,7 C 96 % 1019,6 hPa 0,0 l/m 0 min 0 min 0 W/m 0,0 km/h (0 Bft) 97,83 %
11.10.2020 02:40 7,6 C 6,7 C 6,7 C 96 % 1019,6 hPa 0,0 l/m 0 min 0 min 0 W/m 0,0 km/h (0 Bft) 97,87 %
11.10.2020 02:42 7,7 C 6,7 C 6,7 C 96 % 1019,6 hPa 0,0 l/m 0 min 0 min 0 W/m 3,2 km/h (1 Bft) 97,92 %
11.10.2020 02:44 7,7 C 6,7 C 7,2 C 96 % 1019,6 hPa 0,0 l/m 0 min 0 min 0 W/m 0,0 km/h (0 Bft) 93,62 %
11.10.2020 02:46 7,7 C 6,7 C 7,2 C 96 % 1019,6 hPa 0,0 l/m 0 min 0 min 0 W/m 3,2 km/h (1 Bft) 95,83 %
11.10.2020 02:48 7,7 C 6,7 C 7,2 C 96 % 1019,6 hPa 0,0 l/m 0 min 0 min 0 W/m 9,7 km/h (2 Bft) 97,83 %
11.10.2020 02:50 7,7 C 6,7 C 7,2 C 96 % 1019,6 hPa 0,0 l/m 0 min 0 min 0 W/m 6,4 km/h (2 Bft) 97,87 %
11.10.2020 02:52 7,7 C 6,7 C 7,2 C 96 % 1019,6 hPa 0,0 l/m 0 min 0 min 0 W/m 3,2 km/h (1 Bft) 97,87 %
11.10.2020 02:54 7,7 C 7,2 C 7,2 C 96 % 1019,6 hPa 0,0 l/m 0 min 0 min 0 W/m 3,2 km/h (1 Bft) 93,62 %
11.10.2020 02:56 7,8 C 7,2 C 7,2 C 97 % 1019,7 hPa 0,0 l/m 0 min 0 min 0 W/m 0,0 km/h (0 Bft) 95,74 %
11.10.2020 02:58 7,8 C 7,2 C 7,2 C 97 % 1019,6 hPa 0,0 l/m 0 min 0 min 0 W/m 6,4 km/h (2 Bft) 97,83 %
11.10.2020 03:00 7,8 C 7,2 C 7,2 C 97 % 1019,6 hPa 0,0 l/m 0 min 0 min 0 W/m 3,2 km/h (1 Bft) 95,74 %
11.10.2020 03:02 7,8 C 7,2 C 7,2 C 97 % 1019,7 hPa 0,0 l/m 0 min 0 min 0 W/m 0,0 km/h (0 Bft) 97,62 %
11.10.2020 03:04 7,8 C 7,2 C 7,2 C 97 % 1019,7 hPa 0,0 l/m 0 min 0 min 0 W/m 3,2 km/h (1 Bft) 97,87 %
11.10.2020 03:06 7,9 C 7,2 C 7,2 C 97 % 1019,7 hPa 0,0 l/m 0 min 0 min 0 W/m 3,2 km/h (1 Bft) 100,00 %
11.10.2020 03:08 7,9 C 7,2 C 7,2 C 97 % 1019,7 hPa 0,0 l/m 0 min 0 min 0 W/m 6,4 km/h (2 Bft) 100,00 %
11.10.2020 03:10 7,9 C 7,2 C 7,2 C 97 % 1019,7 hPa 0,0 l/m 0 min 0 min 0 W/m 3,2 km/h (1 Bft) 100,00 %
11.10.2020 03:12 7,9 C 7,2 C 7,2 C 97 % 1019,7 hPa 0,0 l/m 0 min 0 min 0 W/m 0,0 km/h (0 Bft) 97,83 %
11.10.2020 03:14 7,9 C 7,2 C 7,2 C 97 % 1019,7 hPa 0,0 l/m 0 min 0 min 0 W/m 3,2 km/h (1 Bft) 97,92 %
11.10.2020 03:16 7,9 C 7,2 C 7,2 C 97 % 1019,7 hPa 0,0 l/m 0 min 0 min 0 W/m 6,4 km/h (2 Bft) 93,62 %
11.10.2020 03:18 8,0 C 7,2 C 7,2 C 97 % 1019,7 hPa 0,0 l/m 0 min 0 min 0 W/m 0,0 km/h (0 Bft) 97,87 %
11.10.2020 03:20 8,0 C 7,2 C 7,2 C 97 % 1019,7 hPa 0,0 l/m 0 min 0 min 0 W/m 0,0 km/h (0 Bft) 95,83 %
11.10.2020 03:22 8,0 C 7,2 C 7,2 C 97 % 1019,7 hPa 0,0 l/m 0 min 0 min 0 W/m 3,2 km/h (1 Bft) 97,83 %
11.10.2020 03:24 8,0 C 7,2 C 7,2 C 97 % 1019,7 hPa 0,0 l/m 0 min 0 min 0 W/m 0,0 km/h (0 Bft) 95,74 %
11.10.2020 03:26 8,0 C 7,2 C 7,2 C 97 % 1019,6 hPa 0,0 l/m 0 min 0 min 0 W/m 3,2 km/h (1 Bft) 97,87 %
11.10.2020 03:28 8,0 C 7,2 C 7,2 C 97 % 1019,6 hPa 0,0 l/m 0 min 0 min 0 W/m 0,0 km/h (0 Bft) 97,92 %
11.10.2020 03:30 8,0 C 7,2 C 7,2 C 97 % 1019,7 hPa 0,0 l/m 0 min 0 min 0 W/m 3,2 km/h (1 Bft) 97,87 %
11.10.2020 03:32 8,0 C 7,2 C 7,2 C 97 % 1019,6 hPa 0,0 l/m 0 min 0 min 0 W/m 3,2 km/h (1 Bft) 95,65 %
11.10.2020 03:34 8,0 C 7,2 C 7,2 C 97 % 1019,7 hPa 0,0 l/m 0 min 0 min 0 W/m 3,2 km/h (1 Bft) 95,74 %
11.10.2020 03:36 8,0 C 7,2 C 7,2 C 97 % 1019,6 hPa 0,0 l/m 0 min 0 min 0 W/m 3,2 km/h (1 Bft) 95,74 %
11.10.2020 03:38 8,0 C 7,2 C 7,2 C 97 % 1019,6 hPa 0,0 l/m 0 min 0 min 0 W/m 3,2 km/h (1 Bft) 97,87 %
11.10.2020 03:40 8,0 C 7,2 C 7,2 C 97 % 1019,7 hPa 0,0 l/m 0 min 0 min 0 W/m 9,7 km/h (2 Bft) 97,56 %
11.10.2020 03:42 8,1 C 7,2 C 7,2 C 97 % 1019,6 hPa 0,0 l/m 0 min 0 min 0 W/m 3,2 km/h (1 Bft) 97,87 %
11.10.2020 03:44 8,1 C 7,2 C 7,2 C 97 % 1019,7 hPa 0,0 l/m 0 min 0 min 0 W/m 3,2 km/h (1 Bft) 95,74 %
11.10.2020 03:46 8,1 C 7,2 C 7,2 C 97 % 1019,7 hPa 0,0 l/m 0 min 0 min 0 W/m 6,4 km/h (2 Bft) 97,92 %
11.10.2020 03:48 8,1 C 7,2 C 7,2 C 97 % 1019,7 hPa 0,0 l/m 0 min 0 min 0 W/m 0,0 km/h (0 Bft) 97,87 %
11.10.2020 03:50 8,1 C 7,2 C 7,2 C 97 % 1019,6 hPa 0,0 l/m 0 min 0 min 0 W/m 3,2 km/h (1 Bft) 46,15 %
11.10.2020 03:52 8,1 C 7,2 C 7,2 C 97 % 1019,7 hPa 0,0 l/m 0 min 0 min 0 W/m 0,0 km/h (0 Bft) 97,14 %
11.10.2020 03:54 8,0 C 7,2 C 7,2 C 97 % 1019,7 hPa 0,0 l/m 0 min 0 min 0 W/m 0,0 km/h (0 Bft) 97,87 %
11.10.2020 03:56 8,1 C 7,2 C 7,2 C 97 % 1019,6 hPa 0,0 l/m 0 min 0 min 0 W/m 0,0 km/h (0 Bft) 100,00 %
11.10.2020 03:58 8,0 C 7,2 C 7,2 C 97 % 1019,7 hPa 0,0 l/m 0 min 0 min 0 W/m 3,2 km/h (1 Bft) 100,00 %
11.10.2020 04:00 8,0 C 7,2 C 7,2 C 97 % 1019,7 hPa 0,0 l/m 0 min 0 min 0 W/m 0,0 km/h (0 Bft) 100,00 %
11.10.2020 04:02 8,0 C 7,2 C 7,2 C 97 % 1019,6 hPa 0,0 l/m 0 min 0 min 0 W/m 0,0 km/h (0 Bft) 100,00 %
11.10.2020 04:04 8,0 C 7,2 C 7,2 C 97 % 1019,7 hPa 0,0 l/m 0 min 0 min 0 W/m 0,0 km/h (0 Bft) 100,00 %
11.10.2020 04:06 8,0 C 7,2 C 7,2 C 97 % 1019,7 hPa 0,0 l/m 0 min 0 min 0 W/m 3,2 km/h (1 Bft) 100,00 %
11.10.2020 04:08 8,0 C 7,2 C 7,2 C 97 % 1019,7 hPa 0,0 l/m 0 min 0 min 0 W/m 0,0 km/h (0 Bft) 100,00 %
11.10.2020 04:10 8,0 C 7,2 C 7,2 C 98 % 1019,7 hPa 0,0 l/m 0 min 0 min 0 W/m 0,0 km/h (0 Bft) 100,00 %
11.10.2020 04:12 8,0 C 7,2 C 7,2 C 98 % 1019,7 hPa 0,0 l/m 0 min 0 min 0 W/m 3,2 km/h (1 Bft) 100,00 %
11.10.2020 04:14 7,9 C 7,2 C 7,2 C 98 % 1019,6 hPa 0,0 l/m 0 min 0 min 0 W/m 0,0 km/h (0 Bft) 97,87 %
11.10.2020 04:16 7,9 C 7,2 C 7,2 C 98 % 1019,6 hPa 0,0 l/m 0 min 0 min 0 W/m 0,0 km/h (0 Bft) 100,00 %
11.10.2020 04:18 7,9 C 7,2 C 7,2 C 98 % 1019,6 hPa 0,0 l/m 0 min 0 min 0 W/m 0,0 km/h (0 Bft) 95,74 %
11.10.2020 04:20 7,9 C 6,7 C 7,2 C 98 % 1019,6 hPa 0,0 l/m 0 min 0 min 0 W/m 0,0 km/h (0 Bft) 95,65 %
11.10.2020 04:22 7,9 C 6,7 C 7,2 C 98 % 1019,6 hPa 0,0 l/m 0 min 0 min 0 W/m 3,2 km/h (1 Bft) 95,74 %
11.10.2020 04:24 7,9 C 6,7 C 7,2 C 98 % 1019,7 hPa 0,0 l/m 0 min 0 min 0 W/m 6,4 km/h (2 Bft) 97,87 %
11.10.2020 04:26 7,9 C 6,7 C 7,2 C 98 % 1019,7 hPa 0,0 l/m 0 min 0 min 0 W/m 3,2 km/h (1 Bft) 97,56 %
11.10.2020 04:28 7,9 C 6,7 C 7,2 C 98 % 1019,7 hPa 0,0 l/m 0 min 0 min 0 W/m 3,2 km/h (1 Bft) 97,92 %
11.10.2020 04:30 7,9 C 7,2 C 7,2 C 97 % 1019,7 hPa 0,0 l/m 0 min 0 min 0 W/m 3,2 km/h (1 Bft) 97,92 %
11.10.2020 04:32 7,9 C 6,7 C 7,2 C 97 % 1019,7 hPa 0,0 l/m 0 min 0 min 0 W/m 3,2 km/h (1 Bft) 97,92 %
11.10.2020 04:34 7,9 C 6,7 C 7,2 C 97 % 1019,7 hPa 0,0 l/m 0 min 0 min 0 W/m 3,2 km/h (1 Bft) 97,87 %
11.10.2020 04:36 7,9 C 6,7 C 7,2 C 97 % 1019,6 hPa 0,0 l/m 0 min 0 min 0 W/m 3,2 km/h (1 Bft) 97,87 %
11.10.2020 04:38 7,9 C 6,7 C 7,2 C 97 % 1019,6 hPa 0,0 l/m 0 min 0 min 0 W/m 9,7 km/h (2 Bft) 97,92 %
11.10.2020 04:40 7,8 C 6,7 C 7,2 C 97 % 1019,7 hPa 0,0 l/m 0 min 0 min 0 W/m 6,4 km/h (2 Bft) 97,87 %
11.10.2020 04:42 7,8 C 6,7 C 7,2 C 97 % 1019,7 hPa 0,0 l/m 0 min 0 min 0 W/m 3,2 km/h (1 Bft) 97,87 %
11.10.2020 04:44 7,8 C 6,7 C 7,2 C 97 % 1019,7 hPa 0,0 l/m 0 min 0 min 0 W/m 0,0 km/h (0 Bft) 97,87 %
11.10.2020 04:46 7,8 C 6,7 C 7,2 C 97 % 1019,7 hPa 0,0 l/m 0 min 0 min 0 W/m 0,0 km/h (0 Bft) 97,87 %
11.10.2020 04:48 7,8 C 6,7 C 7,2 C 97 % 1019,7 hPa 0,0 l/m 0 min 0 min 0 W/m 0,0 km/h (0 Bft) 97,87 %
11.10.2020 04:50 7,8 C 6,7 C 7,2 C 97 % 1019,8 hPa 0,0 l/m 0 min 0 min 0 W/m 0,0 km/h (0 Bft) 97,87 %
11.10.2020 04:52 7,8 C 6,7 C 7,2 C 98 % 1019,8 hPa 0,0 l/m 0 min 0 min 0 W/m 0,0 km/h (0 Bft) 97,87 %
11.10.2020 04:54 7,8 C 6,7 C 7,2 C 98 % 1019,8 hPa 0,0 l/m 0 min 0 min 0 W/m 0,0 km/h (0 Bft) 97,83 %
11.10.2020 04:56 7,8 C 6,7 C 7,2 C 98 % 1019,8 hPa 0,0 l/m 0 min 0 min 0 W/m 0,0 km/h (0 Bft) 97,62 %
11.10.2020 04:58 7,8 C 6,7 C 7,2 C 98 % 1019,8 hPa 0,0 l/m 0 min 0 min 0 W/m 0,0 km/h (0 Bft) 97,96 %
11.10.2020 05:00 7,8 C 7,2 C 7,2 C 98 % 1019,8 hPa 0,0 l/m 0 min 0 min 0 W/m 0,0 km/h (0 Bft) 96,43 %
11.10.2020 05:02 7,8 C 7,2 C 7,2 C 98 % 1019,9 hPa 0,0 l/m 0 min 0 min 0 W/m 0,0 km/h (0 Bft) 97,56 %
11.10.2020 05:04 7,8 C 7,2 C 7,2 C 98 % 1019,8 hPa 0,0 l/m 0 min 0 min 0 W/m 0,0 km/h (0 Bft) 97,87 %
11.10.2020 05:06 7,8 C 7,2 C 7,2 C 98 % 1019,9 hPa 0,0 l/m 0 min 0 min 0 W/m 0,0 km/h (0 Bft) 97,87 %
11.10.2020 05:08 7,8 C 6,7 C 7,2 C 98 % 1019,9 hPa 0,0 l/m 0 min 0 min 0 W/m 0,0 km/h (0 Bft) 97,87 %
11.10.2020 05:10 7,8 C 6,7 C 7,2 C 98 % 1019,9 hPa 0,0 l/m 0 min 0 min 0 W/m 0,0 km/h (0 Bft) 95,74 %
11.10.2020 05:12 7,8 C 6,7 C 7,2 C 98 % 1019,9 hPa 0,0 l/m 0 min 0 min 0 W/m 0,0 km/h (0 Bft) 95,74 %
11.10.2020 05:14 7,8 C 6,7 C 7,2 C 98 % 1019,9 hPa 0,0 l/m 0 min 0 min 0 W/m 0,0 km/h (0 Bft) 95,74 %
11.10.2020 05:16 7,8 C 6,7 C 6,7 C 98 % 1019,9 hPa 0,0 l/m 0 min 0 min 0 W/m 0,0 km/h (0 Bft) 95,83 %
11.10.2020 05:18 7,8 C 6,7 C 6,7 C 98 % 1019,9 hPa 0,0 l/m 0 min 0 min 0 W/m 0,0 km/h (0 Bft) 55,32 %
11.10.2020 05:20 7,7 C 6,7 C 6,7 C 98 % 1019,9 hPa 0,0 l/m 0 min 0 min 0 W/m 3,2 km/h (1 Bft) 94,74 %
11.10.2020 05:22 7,7 C 6,7 C 7,2 C 98 % 1019,9 hPa 0,0 l/m 0 min 0 min 0 W/m 3,2 km/h (1 Bft) 95,83 %
11.10.2020 05:24 7,7 C 6,7 C 7,2 C 98 % 1019,9 hPa 0,0 l/m 0 min 0 min 0 W/m 0,0 km/h (0 Bft) 95,83 %
11.10.2020 05:26 7,7 C 6,7 C 6,7 C 98 % 1019,9 hPa 0,0 l/m 0 min 0 min 0 W/m 0,0 km/h (0 Bft) 95,74 %
11.10.2020 05:28 7,7 C 6,7 C 6,7 C 98 % 1019,9 hPa 0,0 l/m 0 min 0 min 0 W/m 0,0 km/h (0 Bft) 95,65 %
11.10.2020 05:30 7,7 C 6,7 C 6,7 C 98 % 1019,9 hPa 0,0 l/m 0 min 0 min 0 W/m 0,0 km/h (0 Bft) 93,62 %
11.10.2020 05:32 7,7 C 6,7 C 6,7 C 98 % 1019,9 hPa 0,0 l/m 0 min 0 min 0 W/m 3,2 km/h (1 Bft) 93,62 %
11.10.2020 05:34 7,7 C 6,7 C 6,7 C 98 % 1019,8 hPa 0,0 l/m 0 min 0 min 0 W/m 0,0 km/h (0 Bft) 93,62 %
11.10.2020 05:36 7,7 C 6,7 C 6,7 C 98 % 1019,8 hPa 0,0 l/m 0 min 0 min 0 W/m 3,2 km/h (1 Bft) 95,74 %
11.10.2020 05:38 7,7 C 6,7 C 6,7 C 98 % 1019,8 hPa 0,0 l/m 0 min 0 min 0 W/m 6,4 km/h (2 Bft) 95,74 %
11.10.2020 05:40 7,7 C 6,7 C 6,7 C 98 % 1019,8 hPa 0,0 l/m 0 min 0 min 0 W/m 0,0 km/h (0 Bft) 91,30 %
11.10.2020 05:42 7,6 C 6,7 C 6,7 C 98 % 1019,8 hPa 0,0 l/m 0 min 0 min 0 W/m 3,2 km/h (1 Bft) 91,49 %
11.10.2020 05:44 7,6 C 6,7 C 6,7 C 98 % 1019,8 hPa 0,0 l/m 0 min 0 min 0 W/m 0,0 km/h (0 Bft) 97,87 %
11.10.2020 05:46 7,6 C 6,7 C 6,7 C 98 % 1019,8 hPa 0,0 l/m 0 min 0 min 0 W/m 0,0 km/h (0 Bft) 97,56 %
11.10.2020 05:48 7,6 C 6,7 C 6,7 C 98 % 1019,9 hPa 0,0 l/m 0 min 0 min 0 W/m 3,2 km/h (1 Bft) 95,83 %
11.10.2020 05:50 7,6 C 6,7 C 6,7 C 98 % 1019,8 hPa 0,0 l/m 0 min 0 min 0 W/m 0,0 km/h (0 Bft) 95,83 %
11.10.2020 05:52 7,6 C 6,7 C 6,7 C 98 % 1019,8 hPa 0,0 l/m 0 min 0 min 0 W/m 3,2 km/h (1 Bft) 93,75 %
11.10.2020 05:54 7,6 C 6,7 C 6,7 C 98 % 1019,8 hPa 0,0 l/m 0 min 0 min 0 W/m 3,2 km/h (1 Bft) 95,65 %
11.10.2020 05:56 7,6 C 6,7 C 6,7 C 98 % 1019,8 hPa 0,0 l/m 0 min 0 min 0 W/m 3,2 km/h (1 Bft) 95,83 %
11.10.2020 05:58 7,5 C 6,7 C 6,7 C 98 % 1019,8 hPa 0,0 l/m 0 min 0 min 0 W/m 0,0 km/h (0 Bft) 95,92 %
11.10.2020 06:00 7,5 C 6,1 C 6,7 C 98 % 1019,7 hPa 0,0 l/m 0 min 0 min 0 W/m 0,0 km/h (0 Bft) 93,62 %
11.10.2020 06:02 7,5 C 6,1 C 6,7 C 98 % 1019,7 hPa 0,0 l/m 0 min 0 min 0 W/m 0,0 km/h (0 Bft) 95,65 %
11.10.2020 06:04 7,5 C 6,1 C 6,1 C 98 % 1019,7 hPa 0,0 l/m 0 min 0 min 0 W/m 0,0 km/h (0 Bft) 97,78 %
11.10.2020 06:08 7,4 C 6,1 C 6,1 C 98 % 1019,7 hPa 0,0 l/m 0 min 0 min 0 W/m 0,0 km/h (0 Bft) 96,77 %
11.10.2020 06:10 7,4 C 6,1 C 6,1 C 98 % 1019,7 hPa 0,0 l/m 0 min 0 min 0 W/m 0,0 km/h (0 Bft) 97,87 %
11.10.2020 06:12 7,4 C 6,1 C 6,1 C 98 % 1019,7 hPa 0,0 l/m 0 min 0 min 0 W/m 0,0 km/h (0 Bft) 97,92 %
11.10.2020 06:14 7,4 C 6,1 C 6,1 C 98 % 1019,7 hPa 0,0 l/m 0 min 0 min 0 W/m 0,0 km/h (0 Bft) 95,83 %
11.10.2020 06:16 7,3 C 5,6 C 5,6 C 98 % 1019,7 hPa 0,0 l/m 0 min 0 min 0 W/m 0,0 km/h (0 Bft) 95,74 %
11.10.2020 06:18 7,3 C 5,6 C 5,6 C 98 % 1019,7 hPa 0,0 l/m 0 min 0 min 0 W/m 0,0 km/h (0 Bft) 97,87 %
11.10.2020 06:20 7,3 C 5,6 C 5,6 C 98 % 1019,7 hPa 0,0 l/m 0 min 0 min 0 W/m 0,0 km/h (0 Bft) 95,74 %
11.10.2020 06:22 7,3 C 5,6 C 5,6 C 98 % 1019,7 hPa 0,0 l/m 0 min 0 min 0 W/m 0,0 km/h (0 Bft) 95,74 %
11.10.2020 06:24 7,2 C 5,6 C 5,6 C 98 % 1019,8 hPa 0,0 l/m 0 min 0 min 0 W/m 0,0 km/h (0 Bft) 97,87 %
11.10.2020 06:26 7,2 C 5,6 C 5,6 C 97 % 1019,9 hPa 0,0 l/m 0 min 0 min 0 W/m 0,0 km/h (0 Bft) 97,83 %
11.10.2020 06:28 7,2 C 5,6 C 5,6 C 97 % 1019,9 hPa 0,0 l/m 0 min 0 min 0 W/m 0,0 km/h (0 Bft) 97,87 %
11.10.2020 06:30 7,2 C 5,6 C 5,6 C 97 % 1019,9 hPa 0,0 l/m 0 min 0 min 0 W/m 0,0 km/h (0 Bft) 100,00 %
11.10.2020 06:32 7,1 C 5,6 C 5,6 C 97 % 1019,9 hPa 0,0 l/m 0 min 0 min 0 W/m 0,0 km/h (0 Bft) 97,87 %
11.10.2020 06:34 7,1 C 6,1 C 5,6 C 97 % 1019,9 hPa 0,0 l/m 0 min 0 min 0 W/m 0,0 km/h (0 Bft) 100,00 %
11.10.2020 06:36 7,1 C 6,1 C 5,6 C 97 % 1019,9 hPa 0,0 l/m 0 min 0 min 0 W/m 0,0 km/h (0 Bft) 100,00 %
11.10.2020 06:38 7,1 C 6,1 C 5,6 C 97 % 1019,9 hPa 0,0 l/m 0 min 0 min 0 W/m 0,0 km/h (0 Bft) 100,00 %
11.10.2020 06:40 7,1 C 6,1 C 5,6 C 98 % 1019,9 hPa 0,0 l/m 0 min 0 min 0 W/m 0,0 km/h (0 Bft) 100,00 %
11.10.2020 06:42 7,1 C 6,1 C 6,1 C 98 % 1019,9 hPa 0,0 l/m 0 min 0 min 0 W/m 3,2 km/h (1 Bft) 100,00 %
11.10.2020 06:44 7,0 C 6,1 C 6,1 C 98 % 1019,9 hPa 0,0 l/m 0 min 0 min 0 W/m 0,0 km/h (0 Bft) 100,00 %
11.10.2020 06:46 7,0 C 6,1 C 6,1 C 98 % 1019,8 hPa 0,0 l/m 0 min 0 min 0 W/m 3,2 km/h (1 Bft) 95,83 %
11.10.2020 06:48 7,0 C 6,1 C 6,1 C 98 % 1019,9 hPa 0,0 l/m 0 min 0 min 0 W/m 0,0 km/h (0 Bft) 100,00 %
11.10.2020 06:50 7,0 C 6,1 C 6,1 C 98 % 1019,9 hPa 0,0 l/m 0 min 0 min 0 W/m 0,0 km/h (0 Bft) 100,00 %
11.10.2020 06:52 7,0 C 6,1 C 6,1 C 98 % 1019,9 hPa 0,0 l/m 0 min 0 min 0 W/m 0,0 km/h (0 Bft) 100,00 %
11.10.2020 06:54 7,0 C 6,1 C 6,1 C 98 % 1019,8 hPa 0,0 l/m 0 min 0 min 0 W/m 3,2 km/h (1 Bft) 97,87 %
11.10.2020 06:56 7,0 C 6,1 C 6,1 C 98 % 1019,8 hPa 0,0 l/m 0 min 0 min 0 W/m 0,0 km/h (0 Bft) 100,00 %
11.10.2020 06:58 7,0 C 6,1 C 6,1 C 98 % 1019,8 hPa 0,0 l/m 0 min 0 min 0 W/m 3,2 km/h (1 Bft) 100,00 %
11.10.2020 07:00 7,0 C 6,1 C 6,1 C 98 % 1019,8 hPa 0,0 l/m 0 min 0 min 0 W/m 3,2 km/h (1 Bft) 100,00 %
11.10.2020 07:02 7,0 C 6,1 C 6,1 C 98 % 1019,7 hPa 0,0 l/m 0 min 0 min 0 W/m 3,2 km/h (1 Bft) 95,74 %
11.10.2020 07:04 7,0 C 6,1 C 6,1 C 98 % 1019,8 hPa 0,0 l/m 0 min 0 min 0 W/m 0,0 km/h (0 Bft) 97,87 %
11.10.2020 07:06 7,0 C 6,1 C 6,1 C 98 % 1019,8 hPa 0,0 l/m 0 min 0 min 0 W/m 6,4 km/h (2 Bft) 100,00 %
11.10.2020 07:08 7,0 C 6,1 C 6,1 C 98 % 1019,8 hPa 0,0 l/m 0 min 0 min 0 W/m 6,4 km/h (2 Bft) 100,00 %
11.10.2020 07:10 7,0 C 6,1 C 6,1 C 98 % 1019,7 hPa 0,0 l/m 0 min 0 min 0 W/m 0,0 km/h (0 Bft) 100,00 %
11.10.2020 07:12 7,0 C 6,1 C 6,1 C 98 % 1019,8 hPa 0,0 l/m 0 min 0 min 0 W/m 0,0 km/h (0 Bft) 95,65 %
11.10.2020 07:14 7,1 C 6,1 C 6,1 C 98 % 1019,7 hPa 0,0 l/m 0 min 0 min 0 W/m 3,2 km/h (1 Bft) 100,00 %
11.10.2020 07:16 7,1 C 6,1 C 6,1 C 98 % 1019,7 hPa 0,0 l/m 0 min 0 min 0 W/m 0,0 km/h (0 Bft) 97,56 %
11.10.2020 07:18 7,1 C 6,1 C 6,1 C 98 % 1019,7 hPa 0,0 l/m 0 min 0 min 0 W/m 3,2 km/h (1 Bft) 100,00 %
11.10.2020 07:20 7,1 C 6,1 C 6,7 C 98 % 1019,8 hPa 0,0 l/m 0 min 0 min 0 W/m 0,0 km/h (0 Bft) 95,83 %
11.10.2020 07:22 7,1 C 6,1 C 6,7 C 98 % 1019,7 hPa 0,0 l/m 0 min 0 min 0 W/m 0,0 km/h (0 Bft) 100,00 %
11.10.2020 07:24 7,1 C 6,1 C 6,1 C 98 % 1019,7 hPa 0,0 l/m 0 min 0 min 0 W/m 3,2 km/h (1 Bft) 100,00 %
11.10.2020 07:26 7,1 C 6,1 C 6,1 C 98 % 1019,8 hPa 0,0 l/m 0 min 0 min 0 W/m 6,4 km/h (2 Bft) 100,00 %
11.10.2020 07:28 7,1 C 6,1 C 6,1 C 98 % 1019,7 hPa 0,0 l/m 0 min 0 min 0 W/m 0,0 km/h (0 Bft) 100,00 %
11.10.2020 07:30 7,1 C 6,1 C 6,1 C 98 % 1019,7 hPa 0,0 l/m 0 min 0 min 0 W/m 6,4 km/h (2 Bft) 100,00 %
11.10.2020 07:32 7,1 C 6,1 C 6,1 C 98 % 1019,7 hPa 0,0 l/m 0 min 0 min 0 W/m 3,2 km/h (1 Bft) 100,00 %
11.10.2020 07:34 7,1 C 6,1 C 6,1 C 98 % 1019,7 hPa 0,0 l/m 0 min 0 min 0 W/m 3,2 km/h (1 Bft) 100,00 %
11.10.2020 07:36 7,1 C 6,1 C 6,1 C 98 % 1019,6 hPa 0,0 l/m 0 min 0 min 0 W/m 6,4 km/h (2 Bft) 97,87 %
11.10.2020 07:38 7,1 C 6,1 C 6,1 C 98 % 1019,7 hPa 0,0 l/m 0 min 0 min 0 W/m 9,7 km/h (2 Bft) 100,00 %
11.10.2020 07:40 7,1 C 6,1 C 6,1 C 98 % 1019,7 hPa 0,0 l/m 0 min 0 min 0 W/m 6,4 km/h (2 Bft) 100,00 %
11.10.2020 07:42 7,1 C 6,1 C 6,1 C 98 % 1019,7 hPa 0,0 l/m 0 min 0 min 0 W/m 6,4 km/h (2 Bft) 93,62 %
11.10.2020 07:44 7,1 C 6,1 C 6,1 C 98 % 1019,7 hPa 0,0 l/m 0 min 0 min 0 W/m 3,2 km/h (1 Bft) 100,00 %
11.10.2020 07:46 7,1 C 6,1 C 6,1 C 98 % 1019,7 hPa 0,0 l/m 0 min 0 min 0 W/m 9,7 km/h (2 Bft) 100,00 %
11.10.2020 07:48 7,1 C 6,7 C 6,7 C 98 % 1019,7 hPa 0,0 l/m 0 min 0 min 2 W/m 6,4 km/h (2 Bft) 100,00 %
11.10.2020 07:50 7,1 C 6,7 C 6,7 C 98 % 1019,7 hPa 0,0 l/m 0 min 0 min 5 W/m 6,4 km/h (2 Bft) 100,00 %
11.10.2020 07:52 7,1 C 6,7 C 6,7 C 98 % 1019,7 hPa 0,0 l/m 0 min 0 min 5 W/m 6,4 km/h (2 Bft) 97,87 %
11.10.2020 07:54 7,1 C 6,7 C 6,7 C 98 % 1019,7 hPa 0,0 l/m 0 min 0 min 5 W/m 9,7 km/h (2 Bft) 100,00 %
11.10.2020 07:56 7,1 C 6,7 C 6,7 C 98 % 1019,7 hPa 0,0 l/m 0 min 0 min 5 W/m 6,4 km/h (2 Bft) 100,00 %
11.10.2020 07:58 7,1 C 6,7 C 6,7 C 98 % 1019,8 hPa 0,0 l/m 0 min 0 min 6 W/m 12,9 km/h (3 Bft) 97,87 %
11.10.2020 08:00 7,2 C 6,7 C 6,7 C 98 % 1019,7 hPa 0,0 l/m 0 min 0 min 5 W/m 9,7 km/h (2 Bft) 44,44 %
11.10.2020 08:02 7,2 C 6,7 C 6,7 C 98 % 1019,8 hPa 0,0 l/m 0 min 0 min 7 W/m 6,4 km/h (2 Bft) 100,00 %
11.10.2020 08:04 7,2 C 6,7 C 6,7 C 98 % 1019,8 hPa 0,0 l/m 0 min 0 min 7 W/m 6,4 km/h (2 Bft) 97,87 %
11.10.2020 08:06 7,2 C 6,7 C 6,7 C 98 % 1019,7 hPa 0,0 l/m 0 min 0 min 8 W/m 12,9 km/h (3 Bft) 97,87 %
11.10.2020 08:08 7,2 C 6,7 C 6,7 C 98 % 1019,7 hPa 0,0 l/m 0 min 0 min 9 W/m 16,1 km/h (3 Bft) 97,87 %
11.10.2020 08:10 7,2 C 6,7 C 6,7 C 98 % 1019,8 hPa 0,0 l/m 0 min 0 min 10 W/m 22,5 km/h (4 Bft) 95,65 %
11.10.2020 08:12 7,2 C 6,7 C 6,7 C 98 % 1019,8 hPa 0,0 l/m 0 min 0 min 10 W/m 3,2 km/h (1 Bft) 95,74 %
11.10.2020 08:14 7,2 C 6,7 C 6,7 C 98 % 1019,9 hPa 0,0 l/m 0 min 0 min 8 W/m 6,4 km/h (2 Bft) 95,74 %
11.10.2020 08:16 7,2 C 6,7 C 6,7 C 98 % 1019,8 hPa 0,0 l/m 0 min 0 min 8 W/m 3,2 km/h (1 Bft) 93,62 %
11.10.2020 08:18 7,2 C 6,7 C 6,7 C 98 % 1019,9 hPa 0,0 l/m 0 min 0 min 8 W/m 6,4 km/h (2 Bft) 95,74 %
11.10.2020 08:20 7,2 C 6,7 C 6,7 C 98 % 1020,0 hPa 0,0 l/m 0 min 0 min 8 W/m 3,2 km/h (1 Bft) 95,74 %
11.10.2020 08:22 7,2 C 6,7 C 6,7 C 98 % 1019,9 hPa 0,0 l/m 0 min 0 min 10 W/m 0,0 km/h (0 Bft) 91,30 %
11.10.2020 08:24 7,2 C 6,7 C 6,7 C 98 % 1019,9 hPa 0,0 l/m 0 min 0 min 11 W/m 3,2 km/h (1 Bft) 95,74 %
11.10.2020 08:26 7,2 C 6,7 C 6,7 C 98 % 1020,0 hPa 0,0 l/m 0 min 0 min 13 W/m 6,4 km/h (2 Bft) 95,74 %
11.10.2020 08:28 7,2 C 6,7 C 6,7 C 98 % 1019,9 hPa 0,0 l/m 0 min 0 min 17 W/m 9,7 km/h (2 Bft) 93,62 %
11.10.2020 08:30 7,2 C 6,7 C 6,7 C 98 % 1020,0 hPa 0,0 l/m 0 min 0 min 20 W/m 6,4 km/h (2 Bft) 97,22 %
11.10.2020 08:32 7,2 C 6,7 C 6,7 C 98 % 1020,0 hPa 0,0 l/m 0 min 0 min 25 W/m 3,2 km/h (1 Bft) 93,62 %
11.10.2020 08:34 7,2 C 6,7 C 6,7 C 98 % 1020,0 hPa 0,0 l/m 0 min 0 min 32 W/m 0,0 km/h (0 Bft) 95,74 %
11.10.2020 08:36 7,2 C 6,7 C 6,7 C 98 % 1020,0 hPa 0,0 l/m 0 min 0 min 34 W/m 0,0 km/h (0 Bft) 95,74 %
11.10.2020 08:38 7,2 C 6,7 C 6,7 C 98 % 1020,0 hPa 0,0 l/m 0 min 0 min 37 W/m 9,7 km/h (2 Bft) 95,65 %
11.10.2020 08:40 7,2 C 6,7 C 6,7 C 98 % 1020,0 hPa 0,0 l/m 0 min 0 min 40 W/m 6,4 km/h (2 Bft) 95,74 %
11.10.2020 08:42 7,2 C 6,7 C 6,7 C 98 % 1020,1 hPa 0,0 l/m 0 min 0 min 41 W/m 3,2 km/h (1 Bft) 95,74 %
11.10.2020 08:44 7,2 C 6,7 C 6,7 C 98 % 1020,1 hPa 0,0 l/m 0 min 0 min 36 W/m 6,4 km/h (2 Bft) 93,62 %
11.10.2020 08:46 7,2 C 6,7 C 6,7 C 98 % 1020,1 hPa 0,0 l/m 0 min 0 min 33 W/m 9,7 km/h (2 Bft) 93,62 %
11.10.2020 08:48 7,2 C 6,7 C 6,7 C 98 % 1020,1 hPa 0,0 l/m 0 min 0 min 31 W/m 6,4 km/h (2 Bft) 93,62 %
11.10.2020 08:50 7,2 C 6,7 C 6,7 C 98 % 1020,0 hPa 0,0 l/m 0 min 0 min 25 W/m 9,7 km/h (2 Bft) 95,65 %
11.10.2020 08:52 7,2 C 6,7 C 6,7 C 98 % 1020,0 hPa 0,0 l/m 0 min 0 min 24 W/m 9,7 km/h (2 Bft) 95,74 %
11.10.2020 08:54 7,2 C 6,7 C 6,7 C 98 % 1020,0 hPa 0,0 l/m 0 min 0 min 25 W/m 12,9 km/h (3 Bft) 93,75 %
11.10.2020 08:56 7,2 C 6,7 C 6,7 C 98 % 1020,1 hPa 0,0 l/m 0 min 0 min 25 W/m 6,4 km/h (2 Bft) 97,87 %
11.10.2020 08:58 7,2 C 6,7 C 6,7 C 98 % 1020,1 hPa 0,0 l/m 0 min 0 min 25 W/m 3,2 km/h (1 Bft) 97,87 %
11.10.2020 09:00 7,2 C 6,1 C 6,7 C 98 % 1020,1 hPa 0,0 l/m 0 min 0 min 26 W/m 6,4 km/h (2 Bft) 97,83 %
11.10.2020 09:02 7,2 C 6,1 C 6,7 C 98 % 1020,1 hPa 0,0 l/m 0 min 0 min 27 W/m 6,4 km/h (2 Bft) 100,00 %
11.10.2020 09:04 7,2 C 6,7 C 6,7 C 98 % 1020,2 hPa 0,0 l/m 0 min 0 min 29 W/m 6,4 km/h (2 Bft) 100,00 %
11.10.2020 09:06 7,2 C 6,7 C 6,7 C 98 % 1020,2 hPa 0,0 l/m 0 min 0 min 33 W/m 6,4 km/h (2 Bft) 95,74 %
11.10.2020 09:08 7,1 C 6,7 C 6,7 C 98 % 1020,2 hPa 0,0 l/m 0 min 0 min 37 W/m 3,2 km/h (1 Bft) 98,28 %
11.10.2020 09:10 7,1 C 6,7 C 6,7 C 98 % 1020,3 hPa 0,0 l/m 0 min 0 min 46 W/m 3,2 km/h (1 Bft) 100,00 %
11.10.2020 09:12 7,1 C 6,7 C 6,7 C 98 % 1020,2 hPa 0,0 l/m 0 min 0 min 48 W/m 6,4 km/h (2 Bft) 100,00 %
11.10.2020 09:14 7,1 C 6,7 C 6,7 C 98 % 1020,2 hPa 0,0 l/m 0 min 0 min 44 W/m 6,4 km/h (2 Bft) 97,87 %
11.10.2020 09:16 7,1 C 6,7 C 6,7 C 98 % 1020,2 hPa 0,0 l/m 0 min 0 min 27 W/m 6,4 km/h (2 Bft) 100,00 %
11.10.2020 09:18 7,1 C 6,7 C 6,7 C 98 % 1020,2 hPa 0,0 l/m 0 min 0 min 33 W/m 3,2 km/h (1 Bft) 100,00 %
11.10.2020 09:20 7,1 C 6,7 C 6,7 C 98 % 1020,1 hPa 0,0 l/m 0 min 0 min 40 W/m 0,0 km/h (0 Bft) 97,87 %
11.10.2020 09:22 7,1 C 6,7 C 6,7 C 98 % 1020,2 hPa 0,0 l/m 0 min 0 min 47 W/m 3,2 km/h (1 Bft) 97,87 %
11.10.2020 09:24 7,2 C 7,2 C 6,7 C 98 % 1020,2 hPa 0,0 l/m 0 min 0 min 67 W/m 3,2 km/h (1 Bft) 97,87 %
11.10.2020 09:26 7,2 C 7,2 C 6,7 C 98 % 1020,2 hPa 0,0 l/m 0 min 0 min 58 W/m 6,4 km/h (2 Bft) 97,83 %
11.10.2020 09:28 7,2 C 7,2 C 6,7 C 98 % 1020,3 hPa 0,0 l/m 0 min 0 min 77 W/m 6,4 km/h (2 Bft) 97,87 %
11.10.2020 09:30 7,2 C 7,8 C 6,7 C 98 % 1020,2 hPa 0,0 l/m 0 min 0 min 86 W/m 9,7 km/h (2 Bft) 100,00 %
11.10.2020 09:32 7,2 C 7,8 C 7,2 C 98 % 1020,3 hPa 0,0 l/m 0 min 0 min 82 W/m 3,2 km/h (1 Bft) 100,00 %
11.10.2020 09:34 7,3 C 7,8 C 7,2 C 98 % 1020,3 hPa 0,0 l/m 0 min 0 min 54 W/m 3,2 km/h (1 Bft) 100,00 %
11.10.2020 09:36 7,3 C 7,8 C 7,2 C 98 % 1020,3 hPa 0,0 l/m 0 min 0 min 86 W/m 3,2 km/h (1 Bft) 95,65 %
11.10.2020 09:38 7,3 C 8,3 C 7,2 C 98 % 1020,3 hPa 0,0 l/m 0 min 0 min 124 W/m 3,2 km/h (1 Bft) 93,62 %
11.10.2020 09:40 7,3 C 8,3 C 7,2 C 98 % 1020,3 hPa 0,0 l/m 2 min 0 min 127 W/m 9,7 km/h (2 Bft) 97,87 %
11.10.2020 09:42 7,4 C 8,3 C 7,2 C 98 % 1020,3 hPa 0,0 l/m 0 min 0 min 111 W/m 3,2 km/h (1 Bft) 95,74 %
11.10.2020 09:44 7,4 C 8,3 C 7,2 C 98 % 1020,3 hPa 0,0 l/m 0 min 0 min 93 W/m 6,4 km/h (2 Bft) 97,87 %
11.10.2020 09:46 7,5 C 8,3 C 7,2 C 98 % 1020,3 hPa 0,0 l/m 0 min 0 min 116 W/m 6,4 km/h (2 Bft) 95,74 %
11.10.2020 09:48 7,5 C 8,3 C 7,2 C 98 % 1020,3 hPa 0,0 l/m 0 min 0 min 100 W/m 3,2 km/h (1 Bft) 97,83 %
11.10.2020 09:50 7,6 C 8,3 C 7,2 C 98 % 1020,3 hPa 0,2 l/m 0 min 0 min 106 W/m 9,7 km/h (2 Bft) 95,74 %
11.10.2020 09:52 7,6 C 8,3 C 7,2 C 98 % 1020,3 hPa 0,0 l/m 0 min 0 min 110 W/m 6,4 km/h (2 Bft) 97,87 %
11.10.2020 09:54 7,6 C 8,3 C 7,2 C 98 % 1020,3 hPa 0,0 l/m 2 min 0 min 157 W/m 6,4 km/h (2 Bft) 97,87 %
11.10.2020 09:56 7,6 C 8,9 C 7,8 C 98 % 1020,4 hPa 0,0 l/m 0 min 0 min 122 W/m 6,4 km/h (2 Bft) 97,87 %
11.10.2020 09:58 7,6 C 8,9 C 7,8 C 98 % 1020,3 hPa 0,0 l/m 0 min 0 min 104 W/m 0,0 km/h (0 Bft) 97,87 %
11.10.2020 10:00 7,7 C 8,9 C 7,2 C 98 % 1020,3 hPa 0,0 l/m 0 min 0 min 102 W/m 0,0 km/h (0 Bft) 97,83 %
11.10.2020 10:02 7,7 C 8,9 C 7,8 C 98 % 1020,4 hPa 0,0 l/m 0 min 0 min 126 W/m 0,0 km/h (0 Bft) 95,74 %
11.10.2020 10:04 7,7 C 9,4 C 7,8 C 98 % 1020,4 hPa 0,0 l/m 0 min 0 min 146 W/m 9,7 km/h (2 Bft) 97,87 %
11.10.2020 10:06 7,8 C 10,0 C 7,8 C 98 % 1020,3 hPa 0,0 l/m 2 min 0 min 188 W/m 12,9 km/h (3 Bft) 95,74 %
11.10.2020 10:08 7,8 C 10,0 C 7,8 C 98 % 1020,3 hPa 0,0 l/m 0 min 0 min 130 W/m 6,4 km/h (2 Bft) 95,74 %
11.10.2020 10:10 7,8 C 10,6 C 7,8 C 98 % 1020,4 hPa 0,0 l/m 2 min 0 min 172 W/m 12,9 km/h (3 Bft) 95,74 %
11.10.2020 10:12 7,9 C 10,0 C 7,8 C 98 % 1020,3 hPa 0,0 l/m 2 min 0 min 238 W/m 9,7 km/h (2 Bft) 97,83 %
11.10.2020 10:14 7,9 C 9,4 C 7,8 C 98 % 1020,4 hPa 0,0 l/m 0 min 0 min 118 W/m 12,9 km/h (3 Bft) 97,87 %
11.10.2020 10:16 7,9 C 8,9 C 7,8 C 98 % 1020,4 hPa 0,0 l/m 0 min 0 min 91 W/m 6,4 km/h (2 Bft) 95,74 %
11.10.2020 10:18 7,9 C 8,9 C 7,8 C 98 % 1020,4 hPa 0,0 l/m 0 min 0 min 138 W/m 6,4 km/h (2 Bft) 97,87 %
11.10.2020 10:20 8,0 C 9,4 C 7,8 C 98 % 1020,4 hPa 0,0 l/m 0 min 0 min 83 W/m 3,2 km/h (1 Bft) 97,87 %
11.10.2020 10:22 8,0 C 10,6 C 7,8 C 98 % 1020,4 hPa 0,0 l/m 0 min 0 min 84 W/m 12,9 km/h (3 Bft) 95,74 %
11.10.2020 10:24 8,1 C 11,7 C 7,8 C 98 % 1020,4 hPa 0,0 l/m 0 min 0 min 84 W/m 0,0 km/h (0 Bft) 97,87 %
11.10.2020 10:26 8,2 C 12,8 C 8,3 C 98 % 1020,4 hPa 0,0 l/m 2 min 0 min 189 W/m 12,9 km/h (3 Bft) 95,74 %
11.10.2020 10:28 8,2 C 12,2 C 8,3 C 98 % 1020,4 hPa 0,0 l/m 2 min 0 min 362 W/m 0,0 km/h (0 Bft) 97,87 %
11.10.2020 10:30 8,3 C 11,7 C 8,3 C 98 % 1020,4 hPa 0,0 l/m 0 min 0 min 100 W/m 12,9 km/h (3 Bft) 97,87 %
11.10.2020 10:32 8,3 C 12,2 C 8,3 C 98 % 1020,4 hPa 0,0 l/m 0 min 0 min 140 W/m 3,2 km/h (1 Bft) 97,87 %
11.10.2020 10:34 8,4 C 12,8 C 8,3 C 98 % 1020,3 hPa 0,0 l/m 2 min 0 min 355 W/m 3,2 km/h (1 Bft) 97,83 %
11.10.2020 10:36 8,5 C 12,8 C 8,3 C 98 % 1020,4 hPa 0,0 l/m 2 min 0 min 355 W/m 6,4 km/h (2 Bft) 97,87 %
11.10.2020 10:38 8,6 C 11,1 C 8,3 C 98 % 1020,4 hPa 0,0 l/m 0 min 0 min 177 W/m 12,9 km/h (3 Bft) 100,00 %
11.10.2020 10:40 8,6 C 11,7 C 8,3 C 98 % 1020,4 hPa 0,0 l/m 2 min 0 min 244 W/m 12,9 km/h (3 Bft) 97,87 %
11.10.2020 10:42 8,6 C 12,8 C 8,3 C 98 % 1020,3 hPa 0,0 l/m 2 min 0 min 384 W/m 9,7 km/h (2 Bft) 100,00 %
11.10.2020 10:44 8,7 C 13,9 C 8,3 C 98 % 1020,4 hPa 0,0 l/m 2 min 0 min 432 W/m 16,1 km/h (3 Bft) 97,92 %
11.10.2020 10:46 8,8 C 13,9 C 8,9 C 98 % 1020,3 hPa 0,0 l/m 2 min 0 min 424 W/m 12,9 km/h (3 Bft) 97,83 %
11.10.2020 10:48 8,8 C 13,9 C 8,9 C 98 % 1020,3 hPa 0,0 l/m 2 min 0 min 409 W/m 6,4 km/h (2 Bft) 100,00 %
11.10.2020 10:50 8,9 C 13,9 C 8,9 C 98 % 1020,3 hPa 0,0 l/m 2 min 0 min 424 W/m 9,7 km/h (2 Bft) 97,87 %
11.10.2020 10:52 9,1 C 14,4 C 8,9 C 98 % 1020,3 hPa 0,0 l/m 2 min 0 min 441 W/m 9,7 km/h (2 Bft) 97,87 %
11.10.2020 10:54 9,1 C 14,4 C 8,9 C 98 % 1020,3 hPa 0,0 l/m 2 min 0 min 342 W/m 6,4 km/h (2 Bft) 95,74 %
11.10.2020 10:56 9,2 C 12,8 C 8,9 C 98 % 1020,3 hPa 0,0 l/m 2 min 0 min 313 W/m 9,7 km/h (2 Bft) 95,74 %
11.10.2020 10:58 9,3 C 12,2 C 8,9 C 98 % 1020,3 hPa 0,0 l/m 2 min 0 min 411 W/m 12,9 km/h (3 Bft) 97,83 %
11.10.2020 11:00 9,4 C 12,8 C 8,9 C 98 % 1020,3 hPa 0,0 l/m 2 min 0 min 439 W/m 12,9 km/h (3 Bft) 97,87 %
11.10.2020 11:02 9,4 C 13,3 C 8,9 C 98 % 1020,3 hPa 0,0 l/m 2 min 0 min 408 W/m 12,9 km/h (3 Bft) 97,87 %
11.10.2020 11:04 9,6 C 12,8 C 8,9 C 98 % 1020,3 hPa 0,0 l/m 2 min 0 min 408 W/m 6,4 km/h (2 Bft) 95,74 %
11.10.2020 11:06 9,6 C 12,8 C 9,4 C 98 % 1020,3 hPa 0,0 l/m 2 min 0 min 426 W/m 6,4 km/h (2 Bft) 93,62 %
11.10.2020 11:08 9,7 C 12,2 C 9,4 C 98 % 1020,3 hPa 0,0 l/m 2 min 0 min 430 W/m 12,9 km/h (3 Bft) 95,74 %
11.10.2020 11:10 9,8 C 12,8 C 9,4 C 98 % 1020,3 hPa 0,0 l/m 2 min 0 min 446 W/m 6,4 km/h (2 Bft) 95,65 %
11.10.2020 11:12 9,9 C 12,8 C 9,4 C 97 % 1020,3 hPa 0,0 l/m 2 min 0 min 454 W/m 6,4 km/h (2 Bft) 95,74 %
11.10.2020 11:14 9,9 C 13,3 C 9,4 C 97 % 1020,3 hPa 0,0 l/m 2 min 0 min 467 W/m 6,4 km/h (2 Bft) 93,75 %
11.10.2020 11:16 10,1 C 13,9 C 9,4 C 97 % 1020,3 hPa 0,0 l/m 2 min 0 min 499 W/m 12,9 km/h (3 Bft) 97,87 %
11.10.2020 11:18 10,2 C 16,1 C 9,4 C 97 % 1020,3 hPa 0,0 l/m 2 min 0 min 558 W/m 9,7 km/h (2 Bft) 97,83 %
11.10.2020 11:20 10,3 C 16,1 C 10,0 C 97 % 1020,4 hPa 0,0 l/m 2 min 0 min 493 W/m 9,7 km/h (2 Bft) 97,87 %
11.10.2020 11:22 10,4 C 16,7 C 10,0 C 97 % 1020,3 hPa 0,0 l/m 2 min 0 min 400 W/m 3,2 km/h (1 Bft) 46,15 %
11.10.2020 11:24 10,5 C 16,1 C 10,0 C 96 % 1020,3 hPa 0,0 l/m 2 min 0 min 417 W/m 12,9 km/h (3 Bft) 95,74 %
11.10.2020 11:26 10,6 C 15,0 C 10,0 C 96 % 1020,3 hPa 0,0 l/m 2 min 0 min 293 W/m 9,7 km/h (2 Bft) 100,00 %
11.10.2020 11:28 10,7 C 15,6 C 10,0 C 95 % 1020,3 hPa 0,0 l/m 2 min 0 min 414 W/m 9,7 km/h (2 Bft) 97,87 %
11.10.2020 11:30 10,7 C 16,1 C 10,0 C 95 % 1020,3 hPa 0,0 l/m 2 min 0 min 464 W/m 6,4 km/h (2 Bft) 97,83 %
11.10.2020 11:32 10,8 C 16,7 C 10,0 C 95 % 1020,3 hPa 0,0 l/m 2 min 0 min 429 W/m 6,4 km/h (2 Bft) 97,87 %
11.10.2020 11:34 10,9 C 17,2 C 10,6 C 94 % 1020,3 hPa 0,0 l/m 2 min 0 min 482 W/m 16,1 km/h (3 Bft) 97,87 %
11.10.2020 11:36 11,0 C 16,7 C 10,6 C 93 % 1020,3 hPa 0,0 l/m 2 min 0 min 503 W/m 12,9 km/h (3 Bft) 97,87 %
11.10.2020 11:38 11,1 C 16,1 C 10,6 C 93 % 1020,3 hPa 0,0 l/m 2 min 0 min 557 W/m 19,3 km/h (3 Bft) 97,87 %
11.10.2020 11:40 11,2 C 16,1 C 10,6 C 92 % 1020,4 hPa 0,0 l/m 2 min 0 min 605 W/m 16,1 km/h (3 Bft) 97,87 %
11.10.2020 11:42 11,3 C 16,7 C 10,6 C 92 % 1020,4 hPa 0,0 l/m 2 min 0 min 594 W/m 16,1 km/h (3 Bft) 97,83 %
11.10.2020 11:44 11,4 C 16,7 C 10,6 C 91 % 1020,4 hPa 0,0 l/m 2 min 0 min 564 W/m 16,1 km/h (3 Bft) 100,00 %
11.10.2020 11:46 11,4 C 15,6 C 10,6 C 90 % 1020,3 hPa 0,0 l/m 2 min 0 min 352 W/m 16,1 km/h (3 Bft) 97,87 %
11.10.2020 11:48 11,5 C 16,7 C 10,6 C 89 % 1020,3 hPa 0,0 l/m 2 min 0 min 244 W/m 16,1 km/h (3 Bft) 97,87 %
11.10.2020 11:50 11,6 C 17,8 C 10,6 C 89 % 1020,2 hPa 0,0 l/m 2 min 0 min 563 W/m 19,3 km/h (3 Bft) 97,87 %
11.10.2020 11:52 11,8 C 18,9 C 11,1 C 89 % 1020,2 hPa 0,0 l/m 2 min 0 min 590 W/m 6,4 km/h (2 Bft) 97,87 %
11.10.2020 11:54 11,9 C 20,0 C 11,1 C 89 % 1020,2 hPa 0,0 l/m 2 min 0 min 488 W/m 6,4 km/h (2 Bft) 97,83 %
11.10.2020 11:56 12,1 C 18,9 C 11,7 C 89 % 1020,2 hPa 0,0 l/m 2 min 0 min 490 W/m 9,7 km/h (2 Bft) 95,74 %
11.10.2020 11:58 12,2 C 15,6 C 11,7 C 88 % 1020,2 hPa 0,0 l/m 2 min 0 min 273 W/m 9,7 km/h (2 Bft) 93,62 %
11.10.2020 12:00 12,2 C 16,1 C 11,1 C 87 % 1020,2 hPa 0,0 l/m 0 min 0 min 228 W/m 9,7 km/h (2 Bft) 95,74 %
11.10.2020 12:02 12,3 C 17,8 C 11,1 C 87 % 1020,1 hPa 0,0 l/m 2 min 0 min 443 W/m 3,2 km/h (1 Bft) 95,74 %
11.10.2020 12:04 12,3 C 18,9 C 11,1 C 86 % 1020,1 hPa 0,0 l/m 2 min 0 min 656 W/m 6,4 km/h (2 Bft) 97,83 %
11.10.2020 12:08 12,6 C 19,4 C 11,1 C 86 % 1020,2 hPa 0,0 l/m 4 min 0 min 633 W/m 9,7 km/h (2 Bft) 96,81 %
11.10.2020 12:10 12,7 C 18,9 C 11,1 C 86 % 1020,1 hPa 0,0 l/m 2 min 0 min 578 W/m 6,4 km/h (2 Bft) 95,74 %
11.10.2020 12:12 12,7 C 19,4 C 11,1 C 86 % 1020,2 hPa 0,0 l/m 2 min 0 min 601 W/m 12,9 km/h (3 Bft) 97,87 %
11.10.2020 12:14 12,8 C 18,9 C 11,1 C 85 % 1020,2 hPa 0,0 l/m 2 min 0 min 623 W/m 16,1 km/h (3 Bft) 97,87 %
11.10.2020 12:16 12,9 C 18,3 C 11,1 C 85 % 1020,2 hPa 0,0 l/m 2 min 0 min 450 W/m 12,9 km/h (3 Bft) 95,65 %
11.10.2020 12:18 13,0 C 18,9 C 11,1 C 84 % 1020,1 hPa 0,0 l/m 2 min 0 min 385 W/m 6,4 km/h (2 Bft) 93,62 %
11.10.2020 12:20 13,1 C 18,9 C 11,1 C 84 % 1020,2 hPa 0,0 l/m 2 min 0 min 395 W/m 12,9 km/h (3 Bft) 97,87 %
11.10.2020 12:22 13,1 C 18,9 C 11,7 C 84 % 1020,2 hPa 0,0 l/m 2 min 0 min 482 W/m 12,9 km/h (3 Bft) 97,87 %
11.10.2020 12:24 13,2 C 19,4 C 11,7 C 83 % 1020,3 hPa 0,0 l/m 2 min 0 min 535 W/m 12,9 km/h (3 Bft) 95,74 %
11.10.2020 12:26 13,2 C 20,0 C 11,7 C 83 % 1020,1 hPa 0,0 l/m 2 min 0 min 638 W/m 3,2 km/h (1 Bft) 100,00 %
11.10.2020 12:28 13,3 C 19,4 C 11,1 C 82 % 1020,1 hPa 0,0 l/m 2 min 0 min 575 W/m 9,7 km/h (2 Bft) 97,83 %
11.10.2020 12:30 13,4 C 18,9 C 11,1 C 83 % 1020,1 hPa 0,0 l/m 2 min 0 min 551 W/m 9,7 km/h (2 Bft) 97,87 %
11.10.2020 12:32 13,4 C 18,3 C 11,1 C 82 % 1020,1 hPa 0,0 l/m 2 min 0 min 602 W/m 16,1 km/h (3 Bft) 100,00 %
11.10.2020 12:34 13,4 C 16,7 C 11,1 C 81 % 1020,2 hPa 0,0 l/m 2 min 0 min 577 W/m 16,1 km/h (3 Bft) 100,00 %
11.10.2020 12:36 13,4 C 15,6 C 11,1 C 80 % 1020,1 hPa 0,0 l/m 2 min 0 min 322 W/m 12,9 km/h (3 Bft) 91,49 %
11.10.2020 12:38 13,4 C 16,7 C 11,1 C 80 % 1020,1 hPa 0,0 l/m 2 min 0 min 279 W/m 9,7 km/h (2 Bft) 97,87 %
11.10.2020 12:40 13,3 C 16,7 C 11,1 C 79 % 1020,1 hPa 0,0 l/m 2 min 0 min 279 W/m 16,1 km/h (3 Bft) 93,62 %
11.10.2020 12:42 13,3 C 17,2 C 11,1 C 79 % 1020,1 hPa 0,0 l/m 2 min 0 min 590 W/m 19,3 km/h (3 Bft) 95,74 %
11.10.2020 12:44 13,3 C 16,1 C 11,1 C 79 % 1020,1 hPa 0,0 l/m 2 min 0 min 363 W/m 16,1 km/h (3 Bft) 93,48 %
11.10.2020 12:46 13,3 C 16,1 C 11,1 C 79 % 1020,1 hPa 0,0 l/m 2 min 0 min 271 W/m 12,9 km/h (3 Bft) 87,23 %
11.10.2020 12:48 13,3 C 16,1 C 10,6 C 80 % 1020,1 hPa 0,0 l/m 2 min 0 min 346 W/m 6,4 km/h (2 Bft) 95,74 %
11.10.2020 12:50 13,3 C 15,0 C 10,6 C 79 % 1020,1 hPa 0,0 l/m 0 min 0 min 240 W/m 16,1 km/h (3 Bft) 97,87 %
11.10.2020 12:52 13,3 C 15,6 C 10,6 C 79 % 1020,2 hPa 0,0 l/m 0 min 0 min 141 W/m 0,0 km/h (0 Bft) 95,74 %
11.10.2020 12:54 13,3 C 16,7 C 10,6 C 80 % 1020,1 hPa 0,0 l/m 0 min 0 min 161 W/m 6,4 km/h (2 Bft) 95,74 %
11.10.2020 12:56 13,3 C 17,2 C 11,1 C 80 % 1020,2 hPa 0,0 l/m 2 min 0 min 622 W/m 12,9 km/h (3 Bft) 95,65 %
11.10.2020 12:58 13,3 C 18,3 C 11,1 C 79 % 1020,1 hPa 0,0 l/m 2 min 0 min 622 W/m 22,5 km/h (4 Bft) 89,36 %
11.10.2020 13:00 13,3 C 19,4 C 11,1 C 80 % 1020,1 hPa 0,0 l/m 2 min 0 min 611 W/m 9,7 km/h (2 Bft) 97,87 %
11.10.2020 13:02 13,3 C 18,9 C 11,1 C 80 % 1020,1 hPa 0,0 l/m 2 min 0 min 622 W/m 6,4 km/h (2 Bft) 97,87 %
11.10.2020 13:04 13,4 C 18,9 C 11,1 C 80 % 1020,1 hPa 0,0 l/m 2 min 0 min 629 W/m 12,9 km/h (3 Bft) 95,74 %
11.10.2020 13:06 13,4 C 17,8 C 11,1 C 79 % 1020,1 hPa 0,0 l/m 2 min 0 min 643 W/m 9,7 km/h (2 Bft) 95,83 %
11.10.2020 13:08 13,4 C 18,3 C 11,1 C 79 % 1020,1 hPa 0,0 l/m 2 min 0 min 644 W/m 16,1 km/h (3 Bft) 95,65 %
11.10.2020 13:10 13,5 C 19,4 C 11,1 C 78 % 1020,1 hPa 0,0 l/m 2 min 0 min 638 W/m 16,1 km/h (3 Bft) 95,74 %
11.10.2020 13:12 13,6 C 19,4 C 11,7 C 78 % 1020,1 hPa 0,0 l/m 2 min 0 min 630 W/m 16,1 km/h (3 Bft) 97,87 %
11.10.2020 13:14 13,6 C 18,9 C 11,7 C 78 % 1020,0 hPa 0,0 l/m 2 min 0 min 654 W/m 6,4 km/h (2 Bft) 97,92 %
11.10.2020 13:16 13,7 C 19,4 C 11,7 C 78 % 1020,0 hPa 0,0 l/m 2 min 0 min 689 W/m 16,1 km/h (3 Bft) 95,74 %
11.10.2020 13:18 13,7 C 18,9 C 11,7 C 77 % 1020,0 hPa 0,0 l/m 2 min 0 min 710 W/m 16,1 km/h (3 Bft) 100,00 %
11.10.2020 13:20 13,8 C 20,0 C 12,2 C 78 % 1020,0 hPa 0,0 l/m 2 min 0 min 718 W/m 12,9 km/h (3 Bft) 97,87 %
11.10.2020 13:22 13,9 C 18,9 C 12,2 C 78 % 1020,0 hPa 0,0 l/m 2 min 0 min 715 W/m 19,3 km/h (3 Bft) 97,87 %
11.10.2020 13:24 13,9 C 19,4 C 12,2 C 76 % 1020,0 hPa 0,0 l/m 2 min 0 min 720 W/m 16,1 km/h (3 Bft) 93,75 %
11.10.2020 13:26 14,1 C 18,9 C 12,2 C 76 % 1019,9 hPa 0,0 l/m 2 min 0 min 735 W/m 12,9 km/h (3 Bft) 93,75 %
11.10.2020 13:28 14,1 C 16,7 C 12,2 C 76 % 1020,0 hPa 0,0 l/m 2 min 0 min 490 W/m 12,9 km/h (3 Bft) 93,62 %
11.10.2020 13:30 14,1 C 15,6 C 12,2 C 75 % 1019,9 hPa 0,0 l/m 0 min 0 min 225 W/m 16,1 km/h (3 Bft) 97,83 %
11.10.2020 13:32 14,1 C 17,2 C 11,7 C 74 % 1019,9 hPa 0,0 l/m 2 min 0 min 368 W/m 12,9 km/h (3 Bft) 96,30 %
11.10.2020 13:34 14,1 C 18,9 C 12,2 C 74 % 1019,9 hPa 0,0 l/m 2 min 0 min 664 W/m 16,1 km/h (3 Bft) 95,74 %
11.10.2020 13:36 14,2 C 17,8 C 12,2 C 75 % 1019,9 hPa 0,0 l/m 2 min 0 min 659 W/m 6,4 km/h (2 Bft) 95,65 %
11.10.2020 13:38 14,2 C 18,3 C 12,2 C 75 % 1020,0 hPa 0,0 l/m 2 min 0 min 663 W/m 6,4 km/h (2 Bft) 93,62 %
11.10.2020 13:40 14,2 C 16,7 C 12,2 C 75 % 1020,0 hPa 0,0 l/m 2 min 0 min 453 W/m 12,9 km/h (3 Bft) 95,74 %
11.10.2020 13:42 14,1 C 16,1 C 12,2 C 74 % 1020,1 hPa 0,0 l/m 0 min 0 min 135 W/m 12,9 km/h (3 Bft) 95,74 %
11.10.2020 13:44 14,1 C 17,2 C 12,2 C 74 % 1019,9 hPa 0,0 l/m 2 min 0 min 484 W/m 16,1 km/h (3 Bft) 91,49 %
11.10.2020 13:46 14,1 C 18,9 C 12,2 C 74 % 1020,0 hPa 0,0 l/m 2 min 0 min 676 W/m 12,9 km/h (3 Bft) 91,49 %
11.10.2020 13:48 14,1 C 18,3 C 12,2 C 74 % 1019,9 hPa 0,0 l/m 2 min 0 min 675 W/m 16,1 km/h (3 Bft) 95,65 %
11.10.2020 13:50 14,1 C 15,6 C 11,7 C 74 % 1019,9 hPa 0,0 l/m 2 min 0 min 306 W/m 25,7 km/h (4 Bft) 95,74 %
11.10.2020 13:52 14,1 C 15,0 C 11,7 C 74 % 1019,9 hPa 0,0 l/m 0 min 0 min 161 W/m 12,9 km/h (3 Bft) 97,87 %
11.10.2020 13:54 14,0 C 14,4 C 11,7 C 74 % 1019,9 hPa 0,0 l/m 0 min 0 min 141 W/m 9,7 km/h (2 Bft) 97,56 %
11.10.2020 13:56 13,9 C 15,0 C 11,7 C 75 % 1020,0 hPa 0,0 l/m 0 min 0 min 178 W/m 16,1 km/h (3 Bft) 97,87 %
11.10.2020 13:58 13,9 C 16,1 C 11,7 C 74 % 1019,9 hPa 0,0 l/m 2 min 0 min 421 W/m 12,9 km/h (3 Bft) 97,87 %
11.10.2020 14:00 13,9 C 16,7 C 11,7 C 75 % 1019,9 hPa 0,0 l/m 2 min 0 min 524 W/m 16,1 km/h (3 Bft) 93,62 %
11.10.2020 14:02 13,9 C 18,9 C 12,2 C 75 % 1019,9 hPa 0,0 l/m 2 min 0 min 720 W/m 3,2 km/h (1 Bft) 97,87 %
11.10.2020 14:04 14,0 C 20,0 C 12,2 C 75 % 1019,9 hPa 0,0 l/m 2 min 0 min 686 W/m 16,1 km/h (3 Bft) 95,92 %
11.10.2020 14:06 14,1 C 19,4 C 12,2 C 75 % 1019,9 hPa 0,0 l/m 2 min 0 min 692 W/m 16,1 km/h (3 Bft) 97,92 %
11.10.2020 14:08 14,1 C 17,2 C 12,2 C 75 % 1019,9 hPa 0,0 l/m 2 min 0 min 693 W/m 6,4 km/h (2 Bft) 97,87 %
11.10.2020 14:10 14,1 C 16,7 C 12,2 C 75 % 1019,8 hPa 0,0 l/m 2 min 0 min 464 W/m 6,4 km/h (2 Bft) 93,62 %
11.10.2020 14:12 14,1 C 15,0 C 12,2 C 75 % 1019,8 hPa 0,0 l/m 0 min 0 min 146 W/m 0,0 km/h (0 Bft) 97,87 %
11.10.2020 14:14 14,1 C 14,4 C 11,7 C 75 % 1019,8 hPa 0,0 l/m 0 min 0 min 131 W/m 6,4 km/h (2 Bft) 95,65 %
11.10.2020 14:16 14,1 C 15,6 C 11,7 C 75 % 1019,9 hPa 0,0 l/m 0 min 0 min 145 W/m 6,4 km/h (2 Bft) 97,87 %
11.10.2020 14:18 14,1 C 17,2 C 11,7 C 75 % 1019,8 hPa 0,0 l/m 2 min 0 min 642 W/m 6,4 km/h (2 Bft) 97,87 %
11.10.2020 14:20 14,2 C 17,8 C 12,2 C 76 % 1019,8 hPa 0,0 l/m 2 min 0 min 642 W/m 9,7 km/h (2 Bft) 97,87 %
11.10.2020 14:22 14,2 C 16,7 C 12,2 C 76 % 1019,8 hPa 0,0 l/m 2 min 0 min 268 W/m 6,4 km/h (2 Bft) 97,87 %
11.10.2020 14:24 14,2 C 16,1 C 12,2 C 75 % 1019,8 hPa 0,0 l/m 2 min 0 min 276 W/m 6,4 km/h (2 Bft) 97,87 %
11.10.2020 14:26 14,2 C 15,6 C 12,2 C 75 % 1019,8 hPa 0,0 l/m 2 min 0 min 258 W/m 3,2 km/h (1 Bft) 95,65 %
11.10.2020 14:28 14,2 C 15,6 C 12,2 C 76 % 1019,7 hPa 0,0 l/m 2 min 0 min 259 W/m 0,0 km/h (0 Bft) 97,87 %
11.10.2020 14:30 14,2 C 16,7 C 12,2 C 76 % 1019,8 hPa 0,0 l/m 2 min 0 min 310 W/m 0,0 km/h (0 Bft) 95,74 %
11.10.2020 14:32 14,3 C 17,2 C 12,2 C 76 % 1019,7 hPa 0,0 l/m 2 min 0 min 345 W/m 6,4 km/h (2 Bft) 95,74 %
11.10.2020 14:34 14,3 C 15,6 C 12,2 C 76 % 1019,7 hPa 0,0 l/m 2 min 0 min 244 W/m 12,9 km/h (3 Bft) 95,74 %
11.10.2020 14:36 14,3 C 15,0 C 12,2 C 75 % 1019,7 hPa 0,0 l/m 0 min 0 min 176 W/m 6,4 km/h (2 Bft) 95,74 %
11.10.2020 14:38 14,2 C 14,4 C 12,2 C 75 % 1019,7 hPa 0,0 l/m 0 min 0 min 179 W/m 6,4 km/h (2 Bft) 97,83 %
11.10.2020 14:40 14,2 C 16,1 C 12,2 C 75 % 1019,7 hPa 0,0 l/m 0 min 0 min 193 W/m 6,4 km/h (2 Bft) 97,87 %
11.10.2020 14:42 14,1 C 15,0 C 12,2 C 74 % 1019,7 hPa 0,0 l/m 0 min 0 min 187 W/m 12,9 km/h (3 Bft) 95,74 %
11.10.2020 14:44 14,1 C 14,4 C 12,2 C 74 % 1019,7 hPa 0,0 l/m 0 min 0 min 153 W/m 6,4 km/h (2 Bft) 95,74 %
11.10.2020 14:46 14,1 C 13,9 C 12,2 C 75 % 1019,8 hPa 0,0 l/m 0 min 0 min 147 W/m 6,4 km/h (2 Bft) 95,74 %
11.10.2020 14:48 14,0 C 13,3 C 12,2 C 75 % 1019,7 hPa 0,0 l/m 0 min 0 min 143 W/m 9,7 km/h (2 Bft) 97,87 %
11.10.2020 14:50 13,9 C 13,3 C 11,7 C 75 % 1019,8 hPa 0,0 l/m 0 min 0 min 145 W/m 12,9 km/h (3 Bft) 95,65 %
11.10.2020 14:52 13,8 C 14,4 C 11,7 C 74 % 1019,7 hPa 0,0 l/m 0 min 0 min 177 W/m 3,2 km/h (1 Bft) 95,74 %
11.10.2020 14:54 13,8 C 16,1 C 12,2 C 75 % 1019,7 hPa 0,0 l/m 0 min 0 min 178 W/m 3,2 km/h (1 Bft) 95,74 %
11.10.2020 14:56 13,9 C 17,2 C 12,2 C 76 % 1019,7 hPa 0,0 l/m 0 min 0 min 178 W/m 6,4 km/h (2 Bft) 93,62 %
11.10.2020 14:58 13,9 C 18,3 C 12,2 C 76 % 1019,7 hPa 0,0 l/m 0 min 0 min 230 W/m 9,7 km/h (2 Bft) 95,74 %
11.10.2020 15:00 14,0 C 18,3 C 12,2 C 76 % 1019,7 hPa 0,0 l/m 2 min 0 min 474 W/m 6,4 km/h (2 Bft) 95,65 %
11.10.2020 15:02 14,1 C 17,8 C 12,2 C 76 % 1019,7 hPa 0,0 l/m 2 min 0 min 439 W/m 12,9 km/h (3 Bft) 95,74 %
11.10.2020 15:04 14,2 C 18,9 C 12,8 C 75 % 1019,6 hPa 0,0 l/m 2 min 0 min 605 W/m 6,4 km/h (2 Bft) 91,49 %
11.10.2020 15:06 14,3 C 18,3 C 12,8 C 75 % 1019,7 hPa 0,0 l/m 2 min 0 min 467 W/m 12,9 km/h (3 Bft) 93,62 %
11.10.2020 15:08 14,3 C 16,1 C 12,8 C 74 % 1019,6 hPa 0,0 l/m 2 min 0 min 288 W/m 12,9 km/h (3 Bft) 93,62 %
11.10.2020 15:10 14,3 C 15,0 C 12,8 C 74 % 1019,6 hPa 0,0 l/m 0 min 0 min 159 W/m 6,4 km/h (2 Bft) 93,62 %
11.10.2020 15:12 14,3 C 14,4 C 12,2 C 75 % 1019,6 hPa 0,0 l/m 0 min 0 min 123 W/m 12,9 km/h (3 Bft) 95,65 %
11.10.2020 15:14 14,3 C 14,4 C 12,2 C 74 % 1019,6 hPa 0,0 l/m 0 min 0 min 136 W/m 0,0 km/h (0 Bft) 95,74 %
11.10.2020 15:16 14,3 C 15,0 C 12,2 C 74 % 1019,6 hPa 0,0 l/m 0 min 0 min 169 W/m 16,1 km/h (3 Bft) 95,74 %
11.10.2020 15:18 14,3 C 16,7 C 12,2 C 75 % 1019,6 hPa 0,0 l/m 2 min 0 min 226 W/m 6,4 km/h (2 Bft) 93,62 %
11.10.2020 15:20 14,3 C 18,3 C 12,2 C 75 % 1019,5 hPa 0,0 l/m 2 min 0 min 485 W/m 9,7 km/h (2 Bft) 95,74 %
11.10.2020 15:22 14,3 C 17,2 C 12,2 C 75 % 1019,6 hPa 0,0 l/m 2 min 0 min 530 W/m 16,1 km/h (3 Bft) 95,74 %
11.10.2020 15:24 14,3 C 16,1 C 12,2 C 75 % 1019,6 hPa 0,0 l/m 2 min 0 min 277 W/m 12,9 km/h (3 Bft) 95,65 %
11.10.2020 15:26 14,3 C 15,6 C 12,8 C 75 % 1019,5 hPa 0,0 l/m 0 min 0 min 207 W/m 19,3 km/h (3 Bft) 93,62 %
11.10.2020 15:28 14,3 C 14,4 C 12,2 C 74 % 1019,6 hPa 0,0 l/m 0 min 0 min 179 W/m 16,1 km/h (3 Bft) 95,74 %
11.10.2020 15:30 14,3 C 13,9 C 12,2 C 73 % 1019,5 hPa 0,0 l/m 0 min 0 min 168 W/m 16,1 km/h (3 Bft) 93,62 %
11.10.2020 15:32 14,3 C 13,9 C 12,2 C 74 % 1019,5 hPa 0,0 l/m 0 min 0 min 177 W/m 0,0 km/h (0 Bft) 97,87 %
11.10.2020 15:34 14,3 C 13,9 C 12,2 C 74 % 1019,5 hPa 0,0 l/m 0 min 0 min 186 W/m 6,4 km/h (2 Bft) 97,87 %
11.10.2020 15:36 14,2 C 13,9 C 12,2 C 74 % 1019,4 hPa 0,0 l/m 0 min 0 min 189 W/m 16,1 km/h (3 Bft) 97,83 %
11.10.2020 15:38 14,1 C 16,1 C 12,2 C 74 % 1019,4 hPa 0,0 l/m 2 min 0 min 248 W/m 3,2 km/h (1 Bft) 100,00 %
11.10.2020 15:40 14,2 C 18,3 C 12,2 C 75 % 1019,3 hPa 0,0 l/m 2 min 0 min 451 W/m 9,7 km/h (2 Bft) 97,87 %
11.10.2020 15:42 14,2 C 17,8 C 12,8 C 75 % 1019,4 hPa 0,0 l/m 2 min 0 min 517 W/m 9,7 km/h (2 Bft) 100,00 %
11.10.2020 15:44 14,3 C 18,3 C 12,8 C 75 % 1019,4 hPa 0,0 l/m 2 min 0 min 476 W/m 16,1 km/h (3 Bft) 100,00 %
11.10.2020 15:46 14,3 C 19,4 C 12,8 C 75 % 1019,4 hPa 0,0 l/m 2 min 0 min 409 W/m 16,1 km/h (3 Bft) 95,74 %
11.10.2020 15:48 14,3 C 19,4 C 13,3 C 75 % 1019,3 hPa 0,0 l/m 2 min 0 min 406 W/m 12,9 km/h (3 Bft) 100,00 %
11.10.2020 15:50 14,4 C 18,3 C 13,3 C 75 % 1019,4 hPa 0,0 l/m 2 min 0 min 405 W/m 9,7 km/h (2 Bft) 100,00 %
11.10.2020 15:52 14,5 C 16,7 C 12,8 C 75 % 1019,4 hPa 0,0 l/m 0 min 0 min 175 W/m 6,4 km/h (2 Bft) 100,00 %
11.10.2020 15:54 14,6 C 15,6 C 12,8 C 75 % 1019,4 hPa 0,0 l/m 0 min 0 min 119 W/m 9,7 km/h (2 Bft) 100,00 %
11.10.2020 15:56 14,6 C 14,4 C 12,8 C 74 % 1019,4 hPa 0,0 l/m 0 min 0 min 110 W/m 12,9 km/h (3 Bft) 100,00 %
11.10.2020 15:58 14,6 C 14,4 C 12,2 C 74 % 1019,4 hPa 0,0 l/m 0 min 0 min 87 W/m 3,2 km/h (1 Bft) 100,00 %
11.10.2020 16:00 14,5 C 13,9 C 12,2 C 74 % 1019,4 hPa 0,0 l/m 0 min 0 min 93 W/m 3,2 km/h (1 Bft) 95,74 %
11.10.2020 16:02 14,4 C 13,3 C 12,2 C 74 % 1019,5 hPa 0,0 l/m 0 min 0 min 102 W/m 3,2 km/h (1 Bft) 100,00 %
11.10.2020 16:04 14,3 C 13,3 C 12,2 C 74 % 1019,4 hPa 0,0 l/m 0 min 2 min 112 W/m 6,4 km/h (2 Bft) 100,00 %
11.10.2020 16:06 14,3 C 12,8 C 12,2 C 74 % 1019,4 hPa 0,0 l/m 0 min 2 min 101 W/m 6,4 km/h (2 Bft) 100,00 %
11.10.2020 16:08 14,3 C 12,8 C 11,7 C 75 % 1019,4 hPa 0,0 l/m 0 min 0 min 96 W/m 12,9 km/h (3 Bft) 100,00 %
11.10.2020 16:10 14,3 C 12,8 C 11,7 C 75 % 1019,4 hPa 0,0 l/m 0 min 0 min 105 W/m 3,2 km/h (1 Bft) 100,00 %
11.10.2020 16:12 14,1 C 12,8 C 11,7 C 74 % 1019,4 hPa 0,0 l/m 0 min 0 min 121 W/m 6,4 km/h (2 Bft) 100,00 %
11.10.2020 16:14 14,1 C 12,8 C 11,7 C 75 % 1019,4 hPa 0,0 l/m 0 min 0 min 136 W/m 0,0 km/h (0 Bft) 100,00 %
11.10.2020 16:16 14,0 C 12,8 C 11,7 C 76 % 1019,4 hPa 0,0 l/m 0 min 0 min 136 W/m 0,0 km/h (0 Bft) 100,00 %
11.10.2020 16:18 13,9 C 13,3 C 11,7 C 76 % 1019,4 hPa 0,0 l/m 0 min 0 min 119 W/m 3,2 km/h (1 Bft) 100,00 %
11.10.2020 16:20 13,9 C 12,8 C 11,7 C 76 % 1019,5 hPa 0,0 l/m 0 min 0 min 91 W/m 3,2 km/h (1 Bft) 100,00 %
11.10.2020 16:22 13,8 C 12,8 C 11,7 C 76 % 1019,5 hPa 0,0 l/m 0 min 0 min 72 W/m 6,4 km/h (2 Bft) 97,87 %
11.10.2020 16:24 13,7 C 12,8 C 11,7 C 75 % 1019,5 hPa 0,0 l/m 0 min 0 min 61 W/m 9,7 km/h (2 Bft) 100,00 %
11.10.2020 16:26 13,7 C 12,8 C 11,7 C 75 % 1019,5 hPa 0,0 l/m 0 min 0 min 47 W/m 12,9 km/h (3 Bft) 100,00 %
11.10.2020 16:28 13,6 C 12,2 C 11,7 C 75 % 1019,5 hPa 0,0 l/m 0 min 0 min 38 W/m 6,4 km/h (2 Bft) 100,00 %
11.10.2020 16:30 13,6 C 12,2 C 11,7 C 76 % 1019,5 hPa 0,0 l/m 0 min 0 min 38 W/m 6,4 km/h (2 Bft) 100,00 %
11.10.2020 16:32 13,5 C 12,2 C 11,1 C 76 % 1019,5 hPa 0,0 l/m 0 min 0 min 36 W/m 9,7 km/h (2 Bft) 97,87 %
11.10.2020 16:34 13,4 C 11,7 C 11,1 C 76 % 1019,5 hPa 0,0 l/m 0 min 2 min 30 W/m 0,0 km/h (0 Bft) 100,00 %
11.10.2020 16:36 13,4 C 11,7 C 11,1 C 77 % 1019,6 hPa 0,0 l/m 0 min 2 min 25 W/m 9,7 km/h (2 Bft) 97,83 %
11.10.2020 16:38 13,3 C 11,1 C 11,1 C 77 % 1019,5 hPa 0,0 l/m 0 min 0 min 21 W/m 12,9 km/h (3 Bft) 100,00 %
11.10.2020 16:40 13,2 C 11,1 C 11,1 C 78 % 1019,5 hPa 0,0 l/m 0 min 0 min 18 W/m 6,4 km/h (2 Bft) 100,00 %
11.10.2020 16:42 13,1 C 11,1 C 10,6 C 78 % 1019,5 hPa 0,0 l/m 0 min 0 min 17 W/m 6,4 km/h (2 Bft) 97,87 %
11.10.2020 16:44 13,1 C 10,6 C 10,6 C 79 % 1019,6 hPa 0,0 l/m 0 min 2 min 16 W/m 6,4 km/h (2 Bft) 100,00 %
11.10.2020 16:46 12,9 C 10,6 C 10,6 C 80 % 1019,7 hPa 0,0 l/m 0 min 2 min 17 W/m 16,1 km/h (3 Bft) 100,00 %
11.10.2020 16:48 12,8 C 9,4 C 10,6 C 81 % 1019,8 hPa 0,0 l/m 0 min 2 min 21 W/m 12,9 km/h (3 Bft) 100,00 %
11.10.2020 16:50 12,7 C 9,4 C 10,0 C 83 % 1019,8 hPa 0,2 l/m 0 min 2 min 36 W/m 6,4 km/h (2 Bft) 100,00 %
11.10.2020 16:52 12,6 C 9,4 C 10,0 C 84 % 1019,8 hPa 0,0 l/m 0 min 2 min 65 W/m 6,4 km/h (2 Bft) 97,87 %
11.10.2020 16:54 12,6 C 9,4 C 10,0 C 85 % 1019,8 hPa 0,0 l/m 0 min 2 min 87 W/m 9,7 km/h (2 Bft) 100,00 %
11.10.2020 16:56 12,4 C 10,0 C 10,0 C 85 % 1019,8 hPa 0,0 l/m 0 min 2 min 91 W/m 3,2 km/h (1 Bft) 97,87 %
11.10.2020 16:58 12,4 C 10,0 C 10,0 C 86 % 1019,8 hPa 0,0 l/m 0 min 0 min 95 W/m 0,0 km/h (0 Bft) 100,00 %
11.10.2020 17:00 12,3 C 10,0 C 10,0 C 87 % 1019,8 hPa 0,0 l/m 0 min 0 min 86 W/m 0,0 km/h (0 Bft) 100,00 %
11.10.2020 17:02 12,2 C 10,0 C 10,0 C 87 % 1019,7 hPa 0,0 l/m 0 min 0 min 68 W/m 3,2 km/h (1 Bft) 100,00 %
11.10.2020 17:04 12,2 C 10,6 C 10,0 C 88 % 1019,7 hPa 0,0 l/m 0 min 0 min 87 W/m 6,4 km/h (2 Bft) 100,00 %
11.10.2020 17:06 12,1 C 11,1 C 10,0 C 88 % 1019,7 hPa 0,0 l/m 2 min 0 min 194 W/m 3,2 km/h (1 Bft) 100,00 %
11.10.2020 17:08 12,1 C 11,1 C 10,0 C 88 % 1019,7 hPa 0,0 l/m 2 min 0 min 133 W/m 0,0 km/h (0 Bft) 100,00 %
11.10.2020 17:10 12,1 C 11,7 C 10,0 C 89 % 1019,7 hPa 0,0 l/m 0 min 0 min 98 W/m 3,2 km/h (1 Bft) 97,83 %
11.10.2020 17:12 12,1 C 10,6 C 9,4 C 89 % 1019,7 hPa 0,0 l/m 0 min 0 min 48 W/m 6,4 km/h (2 Bft) 91,49 %
11.10.2020 17:14 11,9 C 10,0 C 9,4 C 89 % 1019,7 hPa 0,0 l/m 0 min 0 min 47 W/m 3,2 km/h (1 Bft) 97,87 %
11.10.2020 17:16 11,9 C 10,0 C 9,4 C 89 % 1019,7 hPa 0,0 l/m 0 min 0 min 54 W/m 3,2 km/h (1 Bft) 97,87 %
11.10.2020 17:18 11,9 C 10,0 C 9,4 C 89 % 1019,8 hPa 0,0 l/m 0 min 0 min 60 W/m 3,2 km/h (1 Bft) 97,87 %
11.10.2020 17:20 11,8 C 10,0 C 9,4 C 89 % 1019,8 hPa 0,0 l/m 0 min 0 min 67 W/m 0,0 km/h (0 Bft) 97,87 %
11.10.2020 17:22 11,8 C 10,0 C 9,4 C 89 % 1019,8 hPa 0,0 l/m 0 min 0 min 67 W/m 0,0 km/h (0 Bft) 93,48 %
11.10.2020 17:24 11,7 C 10,0 C 9,4 C 89 % 1019,8 hPa 0,0 l/m 0 min 0 min 70 W/m 3,2 km/h (1 Bft) 97,87 %
11.10.2020 17:26 11,7 C 10,0 C 9,4 C 90 % 1019,8 hPa 0,0 l/m 0 min 0 min 89 W/m 6,4 km/h (2 Bft) 93,62 %
11.10.2020 17:28 11,6 C 10,0 C 10,0 C 90 % 1019,8 hPa 0,0 l/m 2 min 0 min 97 W/m 0,0 km/h (0 Bft) 93,62 %
11.10.2020 17:30 11,6 C 10,6 C 10,0 C 90 % 1019,8 hPa 0,0 l/m 0 min 0 min 86 W/m 0,0 km/h (0 Bft) 93,62 %
11.10.2020 17:32 11,6 C 10,0 C 10,0 C 90 % 1019,8 hPa 0,0 l/m 0 min 0 min 68 W/m 0,0 km/h (0 Bft) 93,62 %
11.10.2020 17:34 11,6 C 10,0 C 10,0 C 90 % 1019,9 hPa 0,0 l/m 0 min 0 min 55 W/m 3,2 km/h (1 Bft) 92,45 %
11.10.2020 17:36 11,5 C 10,0 C 10,0 C 90 % 1019,8 hPa 0,0 l/m 0 min 0 min 51 W/m 0,0 km/h (0 Bft) 93,62 %
11.10.2020 17:38 11,5 C 10,0 C 10,0 C 90 % 1019,9 hPa 0,0 l/m 0 min 0 min 53 W/m 6,4 km/h (2 Bft) 93,62 %
11.10.2020 17:40 11,5 C 10,0 C 10,0 C 91 % 1019,9 hPa 0,0 l/m 0 min 0 min 54 W/m 0,0 km/h (0 Bft) 93,62 %
11.10.2020 17:42 11,4 C 10,0 C 10,0 C 91 % 1019,9 hPa 0,0 l/m 0 min 0 min 52 W/m 3,2 km/h (1 Bft) 93,48 %
11.10.2020 17:44 11,4 C 10,0 C 10,0 C 91 % 1019,9 hPa 0,0 l/m 0 min 0 min 46 W/m 6,4 km/h (2 Bft) 92,86 %
11.10.2020 17:46 11,4 C 10,0 C 10,0 C 91 % 1019,9 hPa 0,0 l/m 0 min 2 min 38 W/m 3,2 km/h (1 Bft) 91,30 %
11.10.2020 17:48 11,4 C 9,4 C 10,0 C 91 % 1020,0 hPa 0,0 l/m 0 min 2 min 31 W/m 0,0 km/h (0 Bft) 91,49 %
11.10.2020 17:50 11,3 C 9,4 C 10,0 C 91 % 1019,9 hPa 0,0 l/m 0 min 2 min 20 W/m 3,2 km/h (1 Bft) 93,62 %
11.10.2020 17:52 11,3 C 9,4 C 10,0 C 91 % 1019,9 hPa 0,2 l/m 0 min 0 min 14 W/m 0,0 km/h (0 Bft) 93,62 %
11.10.2020 17:54 11,3 C 9,4 C 9,4 C 91 % 1019,9 hPa 0,0 l/m 0 min 0 min 10 W/m 0,0 km/h (0 Bft) 95,83 %
11.10.2020 17:56 11,3 C 9,4 C 9,4 C 91 % 1019,9 hPa 0,0 l/m 0 min 0 min 8 W/m 3,2 km/h (1 Bft) 93,48 %
11.10.2020 17:58 11,2 C 9,4 C 9,4 C 91 % 1020,0 hPa 0,0 l/m 0 min 0 min 7 W/m 0,0 km/h (0 Bft) 55,32 %
11.10.2020 18:00 11,2 C 9,4 C 9,4 C 91 % 1020,0 hPa 0,0 l/m 0 min 0 min 7 W/m 0,0 km/h (0 Bft) 93,62 %
11.10.2020 18:02 11,2 C 9,4 C 9,4 C 91 % 1020,0 hPa 0,0 l/m 0 min 0 min 6 W/m 3,2 km/h (1 Bft) 91,49 %
11.10.2020 18:04 11,2 C 9,4 C 9,4 C 91 % 1020,0 hPa 0,0 l/m 0 min 0 min 5 W/m 9,7 km/h (2 Bft) 89,36 %
11.10.2020 18:08 11,1 C 9,4 C 9,4 C 92 % 1020,1 hPa 0,0 l/m 0 min 4 min 2 W/m 0,0 km/h (0 Bft) 93,62 %
11.10.2020 18:10 11,1 C 9,4 C 9,4 C 92 % 1020,2 hPa 0,0 l/m 0 min 2 min 6 W/m 9,7 km/h (2 Bft) 93,62 %
11.10.2020 18:12 11,1 C 9,4 C 9,4 C 92 % 1020,2 hPa 0,0 l/m 0 min 2 min 8 W/m 9,7 km/h (2 Bft) 93,62 %
11.10.2020 18:14 11,1 C 8,9 C 9,4 C 92 % 1020,1 hPa 0,0 l/m 0 min 2 min 9 W/m 9,7 km/h (2 Bft) 95,83 %
11.10.2020 18:16 11,0 C 9,4 C 9,4 C 92 % 1020,1 hPa 0,0 l/m 0 min 2 min 9 W/m 9,7 km/h (2 Bft) 93,62 %
11.10.2020 18:18 10,9 C 9,4 C 9,4 C 93 % 1020,1 hPa 0,0 l/m 0 min 0 min 10 W/m 3,2 km/h (1 Bft) 93,62 %
11.10.2020 18:20 10,9 C 9,4 C 9,4 C 92 % 1020,1 hPa 0,0 l/m 0 min 2 min 11 W/m 9,7 km/h (2 Bft) 93,48 %
11.10.2020 18:22 10,9 C 9,4 C 9,4 C 93 % 1020,1 hPa 0,0 l/m 0 min 2 min 12 W/m 6,4 km/h (2 Bft) 97,87 %
11.10.2020 18:24 10,9 C 9,4 C 9,4 C 93 % 1020,1 hPa 0,0 l/m 0 min 0 min 14 W/m 6,4 km/h (2 Bft) 100,00 %
11.10.2020 18:26 10,9 C 9,4 C 9,4 C 93 % 1020,1 hPa 0,0 l/m 0 min 0 min 14 W/m 12,9 km/h (3 Bft) 97,87 %
11.10.2020 18:28 10,9 C 9,4 C 9,4 C 93 % 1020,1 hPa 0,0 l/m 0 min 0 min 13 W/m 6,4 km/h (2 Bft) 100,00 %
11.10.2020 18:30 10,9 C 9,4 C 9,4 C 93 % 1020,0 hPa 0,0 l/m 0 min 0 min 12 W/m 9,7 km/h (2 Bft) 97,87 %
11.10.2020 18:32 10,8 C 9,4 C 9,4 C 93 % 1020,1 hPa 0,0 l/m 0 min 0 min 12 W/m 6,4 km/h (2 Bft) 100,00 %
11.10.2020 18:34 10,8 C 9,4 C 9,4 C 93 % 1020,1 hPa 0,0 l/m 0 min 0 min 11 W/m 0,0 km/h (0 Bft) 95,74 %
11.10.2020 18:36 10,8 C 9,4 C 9,4 C 93 % 1020,1 hPa 0,0 l/m 0 min 0 min 11 W/m 3,2 km/h (1 Bft) 100,00 %
11.10.2020 18:38 10,8 C 9,4 C 9,4 C 93 % 1020,1 hPa 0,0 l/m 0 min 0 min 11 W/m 0,0 km/h (0 Bft) 97,87 %
11.10.2020 18:40 10,8 C 9,4 C 9,4 C 94 % 1020,1 hPa 0,0 l/m 0 min 0 min 9 W/m 0,0 km/h (0 Bft) 100,00 %
11.10.2020 18:42 10,7 C 9,4 C 9,4 C 93 % 1020,1 hPa 0,0 l/m 0 min 0 min 9 W/m 0,0 km/h (0 Bft) 97,87 %
11.10.2020 18:44 10,7 C 9,4 C 9,4 C 93 % 1020,1 hPa 0,0 l/m 0 min 0 min 7 W/m 0,0 km/h (0 Bft) 100,00 %
11.10.2020 18:46 10,7 C 9,4 C 9,4 C 94 % 1020,3 hPa 0,0 l/m 0 min 0 min 7 W/m 0,0 km/h (0 Bft) 100,00 %
11.10.2020 18:48 10,7 C 9,4 C 9,4 C 94 % 1020,3 hPa 0,0 l/m 0 min 0 min 5 W/m 6,4 km/h (2 Bft) 97,87 %
11.10.2020 18:50 10,7 C 9,4 C 9,4 C 94 % 1020,3 hPa 0,0 l/m 0 min 0 min 1 W/m 6,4 km/h (2 Bft) 100,00 %
11.10.2020 18:52 10,7 C 8,9 C 9,4 C 94 % 1020,3 hPa 0,0 l/m 0 min 0 min 0 W/m 3,2 km/h (1 Bft) 95,74 %
11.10.2020 18:54 10,6 C 8,9 C 9,4 C 94 % 1020,4 hPa 0,0 l/m 0 min 0 min 0 W/m 3,2 km/h (1 Bft) 100,00 %
11.10.2020 18:56 10,6 C 8,9 C 9,4 C 94 % 1020,4 hPa 0,0 l/m 0 min 0 min 0 W/m 0,0 km/h (0 Bft) 100,00 %
11.10.2020 18:58 10,6 C 8,9 C 9,4 C 94 % 1020,4 hPa 0,0 l/m 0 min 0 min 0 W/m 0,0 km/h (0 Bft) 100,00 %
11.10.2020 19:00 10,6 C 8,9 C 8,9 C 94 % 1020,3 hPa 0,0 l/m 0 min 0 min 0 W/m 0,0 km/h (0 Bft) 100,00 %
11.10.2020 19:02 10,6 C 8,9 C 8,9 C 94 % 1020,3 hPa 0,0 l/m 0 min 0 min 0 W/m 0,0 km/h (0 Bft) 100,00 %
11.10.2020 19:04 10,6 C 8,9 C 8,9 C 94 % 1020,4 hPa 0,0 l/m 0 min 0 min 0 W/m 0,0 km/h (0 Bft) 100,00 %
11.10.2020 19:06 10,6 C 8,9 C 8,9 C 94 % 1020,4 hPa 0,0 l/m 0 min 0 min 0 W/m 0,0 km/h (0 Bft) 100,00 %
11.10.2020 19:08 10,5 C 8,9 C 8,9 C 94 % 1020,4 hPa 0,0 l/m 0 min 0 min 0 W/m 0,0 km/h (0 Bft) 97,87 %
11.10.2020 19:10 10,5 C 8,9 C 8,9 C 94 % 1020,5 hPa 0,0 l/m 0 min 0 min 0 W/m 0,0 km/h (0 Bft) 100,00 %
11.10.2020 19:12 10,5 C 8,9 C 8,9 C 94 % 1020,5 hPa 0,0 l/m 0 min 0 min 0 W/m 0,0 km/h (0 Bft) 97,87 %
11.10.2020 19:14 10,4 C 8,9 C 8,9 C 94 % 1020,5 hPa 0,0 l/m 0 min 0 min 0 W/m 0,0 km/h (0 Bft) 100,00 %
11.10.2020 19:16 10,4 C 8,9 C 8,9 C 94 % 1020,5 hPa 0,0 l/m 0 min 0 min 0 W/m 0,0 km/h (0 Bft) 97,87 %
11.10.2020 19:18 10,4 C 8,9 C 8,9 C 94 % 1020,5 hPa 0,0 l/m 0 min 0 min 0 W/m 0,0 km/h (0 Bft) 100,00 %
11.10.2020 19:20 10,4 C 8,9 C 8,9 C 94 % 1020,5 hPa 0,0 l/m 0 min 0 min 0 W/m 0,0 km/h (0 Bft) 100,00 %
11.10.2020 19:22 10,4 C 8,9 C 8,9 C 94 % 1020,5 hPa 0,0 l/m 0 min 0 min 0 W/m 0,0 km/h (0 Bft) 97,87 %
11.10.2020 19:24 10,3 C 8,9 C 8,9 C 94 % 1020,4 hPa 0,0 l/m 0 min 0 min 0 W/m 0,0 km/h (0 Bft) 100,00 %
11.10.2020 19:26 10,3 C 8,9 C 8,9 C 94 % 1020,5 hPa 0,0 l/m 0 min 0 min 0 W/m 0,0 km/h (0 Bft) 100,00 %
11.10.2020 19:28 10,3 C 8,9 C 8,9 C 95 % 1020,5 hPa 0,0 l/m 0 min 0 min 0 W/m 0,0 km/h (0 Bft) 100,00 %
11.10.2020 19:30 10,3 C 8,9 C 8,9 C 95 % 1020,6 hPa 0,0 l/m 0 min 0 min 0 W/m 0,0 km/h (0 Bft) 100,00 %
11.10.2020 19:32 10,2 C 8,9 C 8,9 C 95 % 1020,6 hPa 0,0 l/m 0 min 0 min 0 W/m 0,0 km/h (0 Bft) 100,00 %
11.10.2020 19:34 10,2 C 8,9 C 8,9 C 95 % 1020,5 hPa 0,0 l/m 0 min 0 min 0 W/m 0,0 km/h (0 Bft) 97,87 %
11.10.2020 19:36 10,2 C 8,3 C 8,9 C 94 % 1020,6 hPa 0,0 l/m 0 min 0 min 0 W/m 0,0 km/h (0 Bft) 100,00 %
11.10.2020 19:38 10,2 C 8,3 C 8,9 C 94 % 1020,6 hPa 0,0 l/m 0 min 0 min 0 W/m 3,2 km/h (1 Bft) 100,00 %
11.10.2020 19:40 10,2 C 8,3 C 8,9 C 94 % 1020,6 hPa 0,0 l/m 0 min 0 min 0 W/m 3,2 km/h (1 Bft) 100,00 %
11.10.2020 19:42 10,1 C 8,3 C 8,9 C 94 % 1020,6 hPa 0,0 l/m 0 min 0 min 0 W/m 3,2 km/h (1 Bft) 100,00 %
11.10.2020 19:44 10,1 C 8,3 C 8,9 C 94 % 1020,7 hPa 0,0 l/m 0 min 0 min 0 W/m 3,2 km/h (1 Bft) 100,00 %
11.10.2020 19:46 10,1 C 8,3 C 8,9 C 95 % 1020,7 hPa 0,0 l/m 0 min 0 min 0 W/m 3,2 km/h (1 Bft) 97,92 %
11.10.2020 19:48 10,1 C 8,3 C 8,9 C 95 % 1020,7 hPa 0,0 l/m 0 min 0 min 0 W/m 3,2 km/h (1 Bft) 97,87 %
11.10.2020 19:50 10,0 C 8,3 C 8,9 C 95 % 1020,8 hPa 0,0 l/m 0 min 0 min 0 W/m 6,4 km/h (2 Bft) 97,83 %
11.10.2020 19:52 10,0 C 8,3 C 8,9 C 95 % 1020,8 hPa 0,0 l/m 0 min 0 min 0 W/m 6,4 km/h (2 Bft) 59,57 %
11.10.2020 19:54 9,9 C 8,3 C 8,9 C 95 % 1020,8 hPa 0,0 l/m 0 min 0 min 0 W/m 0,0 km/h (0 Bft) 95,35 %
11.10.2020 19:56 9,9 C 8,3 C 8,9 C 95 % 1020,8 hPa 0,0 l/m 0 min 0 min 0 W/m 0,0 km/h (0 Bft) 97,87 %
11.10.2020 19:58 9,9 C 8,3 C 8,9 C 95 % 1020,9 hPa 0,0 l/m 0 min 0 min 0 W/m 3,2 km/h (1 Bft) 100,00 %
11.10.2020 20:00 9,9 C 8,3 C 8,9 C 95 % 1020,8 hPa 0,0 l/m 0 min 0 min 0 W/m 0,0 km/h (0 Bft) 97,62 %
11.10.2020 20:02 9,9 C 8,3 C 8,9 C 95 % 1020,8 hPa 0,0 l/m 0 min 0 min 0 W/m 3,2 km/h (1 Bft) 98,00 %
11.10.2020 20:04 9,9 C 8,3 C 8,9 C 95 % 1020,9 hPa 0,0 l/m 0 min 0 min 0 W/m 3,2 km/h (1 Bft) 97,83 %
11.10.2020 20:06 9,9 C 8,3 C 8,9 C 95 % 1020,9 hPa 0,0 l/m 0 min 0 min 0 W/m 3,2 km/h (1 Bft) 97,87 %
11.10.2020 20:08 9,8 C 8,3 C 8,3 C 95 % 1020,9 hPa 0,0 l/m 0 min 0 min 0 W/m 0,0 km/h (0 Bft) 95,83 %
11.10.2020 20:10 9,8 C 8,3 C 8,3 C 95 % 1021,0 hPa 0,0 l/m 0 min 0 min 0 W/m 0,0 km/h (0 Bft) 97,87 %
11.10.2020 20:12 9,8 C 8,3 C 8,3 C 95 % 1021,0 hPa 0,0 l/m 0 min 0 min 0 W/m 0,0 km/h (0 Bft) 97,87 %
11.10.2020 20:14 9,8 C 8,3 C 8,3 C 95 % 1021,0 hPa 0,0 l/m 0 min 0 min 0 W/m 3,2 km/h (1 Bft) 95,74 %
11.10.2020 20:16 9,8 C 8,3 C 8,3 C 95 % 1021,0 hPa 0,0 l/m 0 min 0 min 0 W/m 0,0 km/h (0 Bft) 95,74 %
11.10.2020 20:18 9,8 C 8,3 C 8,9 C 95 % 1021,0 hPa 0,0 l/m 0 min 0 min 0 W/m 0,0 km/h (0 Bft) 97,87 %
11.10.2020 20:20 9,8 C 8,3 C 8,3 C 95 % 1021,0 hPa 0,0 l/m 0 min 0 min 0 W/m 0,0 km/h (0 Bft) 95,74 %
11.10.2020 20:22 9,8 C 8,3 C 8,3 C 95 % 1021,0 hPa 0,0 l/m 0 min 0 min 0 W/m 0,0 km/h (0 Bft) 95,74 %
11.10.2020 20:24 9,7 C 8,3 C 8,3 C 95 % 1021,0 hPa 0,0 l/m 0 min 0 min 0 W/m 0,0 km/h (0 Bft) 97,83 %
11.10.2020 20:26 9,7 C 8,3 C 8,3 C 95 % 1021,0 hPa 0,0 l/m 0 min 0 min 0 W/m 0,0 km/h (0 Bft) 97,87 %
11.10.2020 20:28 9,7 C 8,3 C 8,3 C 95 % 1021,0 hPa 0,0 l/m 0 min 0 min 0 W/m 0,0 km/h (0 Bft) 100,00 %
11.10.2020 20:30 9,7 C 8,3 C 8,3 C 95 % 1020,9 hPa 0,0 l/m 0 min 0 min 0 W/m 0,0 km/h (0 Bft) 95,12 %
11.10.2020 20:32 9,7 C 8,3 C 8,3 C 95 % 1021,0 hPa 0,0 l/m 0 min 0 min 0 W/m 0,0 km/h (0 Bft) 98,25 %
11.10.2020 20:34 9,7 C 8,3 C 8,3 C 95 % 1021,0 hPa 0,0 l/m 0 min 0 min 0 W/m 0,0 km/h (0 Bft) 97,83 %
11.10.2020 20:36 9,6 C 8,3 C 8,3 C 95 % 1021,0 hPa 0,0 l/m 0 min 0 min 0 W/m 6,4 km/h (2 Bft) 97,87 %
11.10.2020 20:38 9,6 C 8,3 C 8,3 C 95 % 1020,9 hPa 0,0 l/m 0 min 0 min 0 W/m 6,4 km/h (2 Bft) 97,87 %
11.10.2020 20:40 9,6 C 8,3 C 8,3 C 95 % 1020,9 hPa 0,0 l/m 0 min 0 min 0 W/m 3,2 km/h (1 Bft) 97,14 %
11.10.2020 20:42 9,6 C 8,3 C 8,3 C 95 % 1020,9 hPa 0,0 l/m 0 min 0 min 0 W/m 3,2 km/h (1 Bft) 95,74 %
11.10.2020 20:44 9,6 C 8,3 C 8,3 C 95 % 1020,9 hPa 0,0 l/m 0 min 0 min 0 W/m 3,2 km/h (1 Bft) 98,31 %
11.10.2020 20:46 9,6 C 8,3 C 8,3 C 95 % 1021,0 hPa 0,0 l/m 0 min 0 min 0 W/m 3,2 km/h (1 Bft) 97,83 %
11.10.2020 20:48 9,6 C 8,3 C 8,3 C 95 % 1020,9 hPa 0,0 l/m 0 min 0 min 0 W/m 3,2 km/h (1 Bft) 97,87 %
11.10.2020 20:50 9,6 C 8,3 C 8,3 C 95 % 1020,9 hPa 0,0 l/m 0 min 0 min 0 W/m 0,0 km/h (0 Bft) 97,87 %
11.10.2020 20:52 9,6 C 8,3 C 8,3 C 95 % 1020,9 hPa 0,0 l/m 0 min 0 min 0 W/m 6,4 km/h (2 Bft) 91,49 %
11.10.2020 20:54 9,6 C 8,3 C 8,3 C 95 % 1020,9 hPa 0,0 l/m 0 min 0 min 0 W/m 3,2 km/h (1 Bft) 97,87 %
11.10.2020 20:56 9,6 C 8,3 C 8,3 C 95 % 1020,9 hPa 0,0 l/m 0 min 0 min 0 W/m 3,2 km/h (1 Bft) 97,87 %
11.10.2020 20:58 9,6 C 8,3 C 8,3 C 95 % 1021,0 hPa 0,0 l/m 0 min 0 min 0 W/m 3,2 km/h (1 Bft) 97,83 %
11.10.2020 21:00 9,6 C 8,3 C 8,3 C 95 % 1021,0 hPa 0,0 l/m 0 min 0 min 0 W/m 3,2 km/h (1 Bft) 97,22 %
11.10.2020 21:02 9,6 C 8,3 C 8,3 C 96 % 1020,9 hPa 0,0 l/m 0 min 0 min 0 W/m 0,0 km/h (0 Bft) 95,74 %
11.10.2020 21:04 9,6 C 8,3 C 8,3 C 96 % 1020,9 hPa 0,0 l/m 0 min 0 min 0 W/m 0,0 km/h (0 Bft) 97,87 %
11.10.2020 21:06 9,6 C 8,3 C 8,3 C 96 % 1020,9 hPa 0,0 l/m 0 min 0 min 0 W/m 0,0 km/h (0 Bft) 98,31 %
11.10.2020 21:08 9,6 C 8,3 C 8,3 C 96 % 1021,0 hPa 0,0 l/m 0 min 0 min 0 W/m 0,0 km/h (0 Bft) 97,14 %
11.10.2020 21:10 9,6 C 8,3 C 8,3 C 96 % 1021,0 hPa 0,0 l/m 0 min 0 min 0 W/m 0,0 km/h (0 Bft) 97,87 %
11.10.2020 21:12 9,5 C 8,3 C 8,3 C 96 % 1020,9 hPa 0,0 l/m 0 min 0 min 0 W/m 0,0 km/h (0 Bft) 95,65 %
11.10.2020 21:14 9,5 C 8,3 C 8,3 C 96 % 1020,9 hPa 0,0 l/m 0 min 0 min 0 W/m 0,0 km/h (0 Bft) 95,74 %
11.10.2020 21:16 9,5 C 8,3 C 8,3 C 96 % 1021,0 hPa 0,0 l/m 0 min 0 min 0 W/m 0,0 km/h (0 Bft) 97,87 %
11.10.2020 21:18 9,5 C 7,8 C 8,3 C 96 % 1020,9 hPa 0,0 l/m 0 min 0 min 0 W/m 6,4 km/h (2 Bft) 97,87 %
11.10.2020 21:20 9,5 C 7,8 C 8,3 C 96 % 1020,9 hPa 0,0 l/m 0 min 0 min 0 W/m 0,0 km/h (0 Bft) 97,87 %
11.10.2020 21:22 9,4 C 7,8 C 8,3 C 96 % 1021,0 hPa 0,0 l/m 0 min 0 min 0 W/m 3,2 km/h (1 Bft) 97,87 %
11.10.2020 21:24 9,4 C 7,8 C 7,8 C 96 % 1021,1 hPa 0,0 l/m 0 min 0 min 0 W/m 0,0 km/h (0 Bft) 97,83 %
11.10.2020 21:26 9,4 C 7,8 C 7,8 C 96 % 1021,0 hPa 0,0 l/m 0 min 0 min 0 W/m 3,2 km/h (1 Bft) 95,74 %
11.10.2020 21:28 9,4 C 7,8 C 7,8 C 96 % 1021,0 hPa 0,0 l/m 0 min 0 min 0 W/m 0,0 km/h (0 Bft) 95,74 %
11.10.2020 21:30 9,4 C 7,8 C 7,8 C 96 % 1021,0 hPa 0,0 l/m 0 min 0 min 0 W/m 3,2 km/h (1 Bft) 95,74 %
11.10.2020 21:32 9,4 C 7,8 C 7,8 C 96 % 1021,1 hPa 0,0 l/m 0 min 0 min 0 W/m 0,0 km/h (0 Bft) 93,62 %
11.10.2020 21:34 9,4 C 7,8 C 7,8 C 96 % 1021,0 hPa 0,0 l/m 0 min 0 min 0 W/m 3,2 km/h (1 Bft) 48,78 %
11.10.2020 21:36 9,3 C 7,8 C 7,8 C 96 % 1021,1 hPa 0,0 l/m 0 min 0 min 0 W/m 0,0 km/h (0 Bft) 96,55 %
11.10.2020 21:38 9,3 C 7,8 C 7,8 C 96 % 1021,0 hPa 0,0 l/m 0 min 0 min 0 W/m 3,2 km/h (1 Bft) 94,29 %
11.10.2020 21:40 9,3 C 7,8 C 7,8 C 96 % 1021,0 hPa 0,0 l/m 0 min 0 min 0 W/m 3,2 km/h (1 Bft) 97,87 %
11.10.2020 21:42 9,3 C 7,8 C 7,8 C 96 % 1020,9 hPa 0,0 l/m 0 min 0 min 0 W/m 3,2 km/h (1 Bft) 95,74 %
11.10.2020 21:44 9,3 C 7,8 C 7,8 C 96 % 1020,9 hPa 0,0 l/m 0 min 0 min 0 W/m 0,0 km/h (0 Bft) 97,87 %
11.10.2020 21:46 9,2 C 7,8 C 7,8 C 96 % 1020,9 hPa 0,0 l/m 0 min 0 min 0 W/m 0,0 km/h (0 Bft) 97,87 %
11.10.2020 21:48 9,2 C 7,8 C 7,8 C 96 % 1020,9 hPa 0,0 l/m 0 min 0 min 0 W/m 3,2 km/h (1 Bft) 95,65 %
11.10.2020 21:50 9,2 C 7,8 C 7,8 C 96 % 1020,9 hPa 0,0 l/m 0 min 0 min 0 W/m 3,2 km/h (1 Bft) 95,74 %
11.10.2020 21:52 9,2 C 7,8 C 7,8 C 96 % 1020,8 hPa 0,0 l/m 0 min 0 min 0 W/m 3,2 km/h (1 Bft) 97,87 %
11.10.2020 21:54 9,2 C 7,8 C 7,8 C 96 % 1020,8 hPa 0,0 l/m 0 min 0 min 0 W/m 3,2 km/h (1 Bft) 97,87 %
11.10.2020 21:56 9,1 C 7,2 C 7,8 C 96 % 1020,8 hPa 0,0 l/m 0 min 0 min 0 W/m 3,2 km/h (1 Bft) 97,87 %
11.10.2020 21:58 9,1 C 7,8 C 7,8 C 96 % 1020,8 hPa 0,0 l/m 0 min 0 min 0 W/m 3,2 km/h (1 Bft) 97,83 %
11.10.2020 22:00 9,1 C 7,8 C 7,8 C 96 % 1020,8 hPa 0,0 l/m 0 min 0 min 0 W/m 3,2 km/h (1 Bft) 97,87 %
11.10.2020 22:02 9,1 C 7,8 C 7,8 C 96 % 1020,9 hPa 0,0 l/m 0 min 0 min 0 W/m 6,4 km/h (2 Bft) 97,87 %
11.10.2020 22:04 9,1 C 7,8 C 7,8 C 96 % 1020,9 hPa 0,0 l/m 0 min 0 min 0 W/m 3,2 km/h (1 Bft) 97,87 %
11.10.2020 22:06 9,1 C 7,8 C 7,8 C 96 % 1020,9 hPa 0,0 l/m 0 min 0 min 0 W/m 0,0 km/h (0 Bft) 96,61 %
11.10.2020 22:08 9,0 C 7,2 C 7,2 C 96 % 1020,9 hPa 0,0 l/m 0 min 0 min 0 W/m 3,2 km/h (1 Bft) 94,29 %
11.10.2020 22:10 9,0 C 7,8 C 7,8 C 96 % 1020,9 hPa 0,0 l/m 0 min 0 min 0 W/m 6,4 km/h (2 Bft) 95,65 %
11.10.2020 22:12 8,9 C 7,8 C 7,8 C 96 % 1021,0 hPa 0,0 l/m 0 min 0 min 0 W/m 0,0 km/h (0 Bft) 97,87 %
11.10.2020 22:14 8,9 C 7,8 C 7,8 C 96 % 1021,0 hPa 0,0 l/m 0 min 0 min 0 W/m 0,0 km/h (0 Bft) 97,87 %
11.10.2020 22:16 8,9 C 7,8 C 7,2 C 96 % 1021,0 hPa 0,0 l/m 0 min 0 min 0 W/m 0,0 km/h (0 Bft) 97,87 %
11.10.2020 22:18 8,9 C 7,8 C 7,2 C 96 % 1021,0 hPa 0,0 l/m 0 min 0 min 0 W/m 0,0 km/h (0 Bft) 95,74 %
11.10.2020 22:20 8,9 C 7,8 C 7,2 C 96 % 1021,0 hPa 0,0 l/m 0 min 0 min 0 W/m 3,2 km/h (1 Bft) 95,74 %
11.10.2020 22:22 8,8 C 7,8 C 7,2 C 96 % 1021,0 hPa 0,0 l/m 0 min 0 min 0 W/m 0,0 km/h (0 Bft) 97,83 %
11.10.2020 22:24 8,8 C 7,2 C 7,2 C 96 % 1021,0 hPa 0,0 l/m 0 min 0 min 0 W/m 0,0 km/h (0 Bft) 97,87 %
11.10.2020 22:26 8,8 C 7,2 C 7,2 C 96 % 1021,1 hPa 0,0 l/m 0 min 0 min 0 W/m 3,2 km/h (1 Bft) 95,74 %
11.10.2020 22:28 8,8 C 7,2 C 7,2 C 96 % 1021,1 hPa 0,0 l/m 0 min 0 min 0 W/m 3,2 km/h (1 Bft) 93,62 %
11.10.2020 22:30 8,8 C 7,8 C 7,2 C 96 % 1021,1 hPa 0,0 l/m 0 min 0 min 0 W/m 0,0 km/h (0 Bft) 95,74 %
11.10.2020 22:32 8,8 C 7,8 C 7,8 C 96 % 1021,1 hPa 0,2 l/m 0 min 0 min 0 W/m 0,0 km/h (0 Bft) 93,75 %
11.10.2020 22:34 8,8 C 7,8 C 7,8 C 96 % 1021,1 hPa 0,0 l/m 0 min 0 min 0 W/m 0,0 km/h (0 Bft) 93,48 %
11.10.2020 22:36 8,8 C 7,8 C 7,8 C 96 % 1021,2 hPa 0,0 l/m 0 min 0 min 0 W/m 0,0 km/h (0 Bft) 95,74 %
11.10.2020 22:38 8,8 C 7,8 C 7,8 C 96 % 1021,2 hPa 0,0 l/m 0 min 0 min 0 W/m 3,2 km/h (1 Bft) 93,62 %
11.10.2020 22:40 8,8 C 7,8 C 7,8 C 96 % 1021,2 hPa 0,0 l/m 0 min 0 min 0 W/m 3,2 km/h (1 Bft) 95,74 %
11.10.2020 22:42 8,8 C 7,8 C 7,8 C 96 % 1021,1 hPa 0,0 l/m 0 min 0 min 0 W/m 0,0 km/h (0 Bft) 95,74 %
11.10.2020 22:44 8,8 C 7,8 C 7,8 C 96 % 1021,1 hPa 0,0 l/m 0 min 0 min 0 W/m 0,0 km/h (0 Bft) 95,74 %
11.10.2020 22:46 8,8 C 7,8 C 7,8 C 97 % 1021,1 hPa 0,0 l/m 0 min 0 min 0 W/m 3,2 km/h (1 Bft) 95,74 %
11.10.2020 22:48 8,8 C 7,8 C 7,8 C 97 % 1021,1 hPa 0,0 l/m 0 min 0 min 0 W/m 3,2 km/h (1 Bft) 95,65 %
11.10.2020 22:50 8,8 C 7,8 C 7,8 C 97 % 1021,1 hPa 0,0 l/m 0 min 0 min 0 W/m 0,0 km/h (0 Bft) 95,74 %
11.10.2020 22:52 8,8 C 7,8 C 7,8 C 97 % 1021,1 hPa 0,0 l/m 0 min 0 min 0 W/m 0,0 km/h (0 Bft) 95,74 %
11.10.2020 22:54 8,8 C 7,8 C 7,8 C 97 % 1021,1 hPa 0,0 l/m 0 min 0 min 0 W/m 0,0 km/h (0 Bft) 97,87 %
11.10.2020 22:56 8,8 C 7,8 C 7,8 C 97 % 1021,1 hPa 0,0 l/m 0 min 0 min 0 W/m 0,0 km/h (0 Bft) 97,87 %
11.10.2020 22:58 8,8 C 7,8 C 7,8 C 97 % 1021,1 hPa 0,0 l/m 0 min 0 min 0 W/m 3,2 km/h (1 Bft) 97,87 %
11.10.2020 23:00 8,8 C 7,8 C 7,8 C 97 % 1021,1 hPa 0,0 l/m 0 min 0 min 0 W/m 3,2 km/h (1 Bft) 97,83 %
11.10.2020 23:02 8,8 C 7,8 C 7,8 C 97 % 1021,1 hPa 0,0 l/m 0 min 0 min 0 W/m 0,0 km/h (0 Bft) 95,74 %
11.10.2020 23:04 8,8 C 7,8 C 7,8 C 97 % 1021,0 hPa 0,0 l/m 0 min 0 min 0 W/m 0,0 km/h (0 Bft) 95,74 %
11.10.2020 23:06 8,8 C 7,8 C 7,8 C 97 % 1021,0 hPa 0,0 l/m 0 min 0 min 0 W/m 0,0 km/h (0 Bft) 51,22 %
11.10.2020 23:08 8,8 C 7,8 C 7,8 C 97 % 1021,0 hPa 0,0 l/m 0 min 0 min 0 W/m 0,0 km/h (0 Bft) 100,00 %
11.10.2020 23:10 8,8 C 7,8 C 7,8 C 97 % 1021,0 hPa 0,0 l/m 0 min 0 min 0 W/m 3,2 km/h (1 Bft) 100,00 %
11.10.2020 23:12 8,9 C 7,8 C 7,8 C 97 % 1021,0 hPa 0,0 l/m 0 min 0 min 0 W/m 6,4 km/h (2 Bft) 100,00 %
11.10.2020 23:14 8,9 C 7,8 C 7,8 C 97 % 1021,0 hPa 0,0 l/m 0 min 0 min 0 W/m 0,0 km/h (0 Bft) 97,87 %
11.10.2020 23:16 8,9 C 7,8 C 8,3 C 97 % 1021,0 hPa 0,0 l/m 0 min 0 min 0 W/m 0,0 km/h (0 Bft) 100,00 %
11.10.2020 23:18 8,9 C 7,8 C 8,3 C 97 % 1021,1 hPa 0,0 l/m 0 min 0 min 0 W/m 0,0 km/h (0 Bft) 100,00 %
11.10.2020 23:20 8,9 C 8,3 C 8,3 C 97 % 1021,1 hPa 0,0 l/m 0 min 0 min 0 W/m 0,0 km/h (0 Bft) 97,87 %
11.10.2020 23:22 8,9 C 7,8 C 8,3 C 97 % 1021,1 hPa 0,0 l/m 0 min 0 min 0 W/m 0,0 km/h (0 Bft) 100,00 %
11.10.2020 23:24 8,9 C 8,3 C 8,3 C 97 % 1021,1 hPa 0,0 l/m 0 min 0 min 0 W/m 0,0 km/h (0 Bft) 100,00 %
11.10.2020 23:26 8,9 C 8,3 C 8,3 C 97 % 1021,1 hPa 0,0 l/m 0 min 0 min 0 W/m 0,0 km/h (0 Bft) 97,87 %
11.10.2020 23:28 8,9 C 8,3 C 8,3 C 97 % 1021,1 hPa 0,0 l/m 0 min 0 min 0 W/m 0,0 km/h (0 Bft) 100,00 %
11.10.2020 23:30 8,9 C 7,8 C 8,3 C 97 % 1021,1 hPa 0,0 l/m 0 min 0 min 0 W/m 0,0 km/h (0 Bft) 100,00 %
11.10.2020 23:32 8,9 C 7,8 C 8,3 C 97 % 1021,1 hPa 0,0 l/m 0 min 0 min 0 W/m 0,0 km/h (0 Bft) 100,00 %
11.10.2020 23:34 8,9 C 7,8 C 8,3 C 97 % 1021,1 hPa 0,0 l/m 0 min 0 min 0 W/m 0,0 km/h (0 Bft) 97,83 %
11.10.2020 23:36 8,9 C 7,8 C 7,8 C 97 % 1021,1 hPa 0,0 l/m 0 min 0 min 0 W/m 0,0 km/h (0 Bft) 100,00 %
11.10.2020 23:38 8,9 C 7,8 C 7,8 C 97 % 1021,1 hPa 0,0 l/m 0 min 0 min 0 W/m 0,0 km/h (0 Bft) 100,00 %
11.10.2020 23:40 8,9 C 7,8 C 7,8 C 97 % 1021,1 hPa 0,0 l/m 0 min 0 min 0 W/m 0,0 km/h (0 Bft) 100,00 %
11.10.2020 23:42 8,9 C 7,8 C 7,8 C 97 % 1021,1 hPa 0,0 l/m 0 min 0 min 0 W/m 0,0 km/h (0 Bft) 97,87 %
11.10.2020 23:44 8,9 C 7,8 C 7,8 C 97 % 1021,2 hPa 0,0 l/m 0 min 0 min 0 W/m 0,0 km/h (0 Bft) 100,00 %
11.10.2020 23:46 8,9 C 7,8 C 7,8 C 97 % 1021,2 hPa 0,0 l/m 0 min 0 min 0 W/m 0,0 km/h (0 Bft) 100,00 %
11.10.2020 23:48 8,9 C 7,8 C 7,8 C 97 % 1021,2 hPa 0,0 l/m 0 min 0 min 0 W/m 0,0 km/h (0 Bft) 100,00 %
11.10.2020 23:50 8,8 C 7,8 C 7,8 C 97 % 1021,2 hPa 0,0 l/m 0 min 0 min 0 W/m 0,0 km/h (0 Bft) 97,87 %
11.10.2020 23:52 8,8 C 7,8 C 7,8 C 97 % 1021,2 hPa 0,0 l/m 0 min 0 min 0 W/m 0,0 km/h (0 Bft) 97,87 %
11.10.2020 23:54 8,8 C 7,8 C 7,8 C 97 % 1021,2 hPa 0,0 l/m 0 min 0 min 0 W/m 0,0 km/h (0 Bft) 97,87 %
11.10.2020 23:56 8,8 C 7,8 C 7,8 C 97 % 1021,2 hPa 0,0 l/m 0 min 0 min 0 W/m 0,0 km/h (0 Bft) 97,83 %
11.10.2020 23:58 8,8 C 7,8 C 7,8 C 97 % 1021,2 hPa 0,0 l/m 0 min 0 min 0 W/m 0,0 km/h (0 Bft) 97,87 %
_ Min-Zeit 06:44 06:16 06:16 15:30 00:02 - - - - 00:26 08:00
Minimum _ 7,0 C 5,6 C 5,6 C 73 % 1019,2 hPa - - - - 0,0 km/h (0 Bft) 44,44 %
_ Max-Zeit 15:54 11:54 15:48 04:10 22:36 09:50 12:08 18:08 13:26 13:50 00:40
Maximum _ 14,6 C 20,0 C 13,3 C 98 % 1021,2 hPa 0,2 l/m 4 min 4 min 735 W/m 25,7 km/h
O (4 Bft)
100,00 %
Durchschnitt _ 9,8 C 9,8 C 8,6 C 92 % 1020,1 hPa #0,8 l/m #4:28 h #44 min. 230 W/m 5,0 km/h (1 Bft) 96,75 %
© 2020 W. Hausmann